<?xml version="1.0" encoding="UTF-8" standalone="no" ?>
<gpx xmlns="http://www.topografix.com/GPX/1/1" xmlns:xsi="http://www.w3.org/2001/XMLSchema-instance" xsi:schemaLocation="http://www.topografix.com/GPX/1/1 http://www.topografix.com/GPX/1/1/gpx.xsd" version="1.1" creator="VisuGPX - https://www.visugpx.com">
  <metadata>
    <name>Brax bleu 2022</name>
  </metadata>
  <trk>
    <name><![CDATA[14217815-Brax bleu 2022]]></name>
    <trkseg>
      <trkpt lat="43.61435" lon="1.23581">
        <ele>193</ele>
        <time>2022-03-12T16:37:00Z</time>
      </trkpt>
      <trkpt lat="43.61401" lon="1.23709">
        <ele>193</ele>
        <time>2022-03-12T16:37:18Z</time>
      </trkpt>
      <trkpt lat="43.61382" lon="1.23703">
        <ele>193</ele>
        <time>2022-03-12T16:37:21Z</time>
      </trkpt>
      <trkpt lat="43.61362" lon="1.23701">
        <ele>193</ele>
        <time>2022-03-12T16:37:25Z</time>
      </trkpt>
      <trkpt lat="43.61137" lon="1.237">
        <ele>194</ele>
        <time>2022-03-12T16:38:05Z</time>
      </trkpt>
      <trkpt lat="43.61118" lon="1.23694">
        <ele>194</ele>
        <time>2022-03-12T16:38:08Z</time>
      </trkpt>
      <trkpt lat="43.61115" lon="1.23692">
        <ele>194</ele>
        <time>2022-03-12T16:38:09Z</time>
      </trkpt>
      <trkpt lat="43.61111" lon="1.23685">
        <ele>194</ele>
        <time>2022-03-12T16:38:10Z</time>
      </trkpt>
      <trkpt lat="43.61111" lon="1.23675">
        <ele>194</ele>
        <time>2022-03-12T16:38:11Z</time>
      </trkpt>
      <trkpt lat="43.61106" lon="1.2367">
        <ele>194</ele>
        <time>2022-03-12T16:38:12Z</time>
      </trkpt>
      <trkpt lat="43.61103" lon="1.23667">
        <ele>194</ele>
        <time>2022-03-12T16:38:13Z</time>
      </trkpt>
      <trkpt lat="43.61092" lon="1.2367">
        <ele>194</ele>
        <time>2022-03-12T16:38:15Z</time>
      </trkpt>
      <trkpt lat="43.61089" lon="1.23669">
        <ele>194</ele>
        <time>2022-03-12T16:38:15Z</time>
      </trkpt>
      <trkpt lat="43.6102" lon="1.23589">
        <ele>195</ele>
        <time>2022-03-12T16:38:31Z</time>
      </trkpt>
      <trkpt lat="43.60948" lon="1.23511">
        <ele>194</ele>
        <time>2022-03-12T16:38:48Z</time>
      </trkpt>
      <trkpt lat="43.60946" lon="1.23504">
        <ele>194</ele>
        <time>2022-03-12T16:38:49Z</time>
      </trkpt>
      <trkpt lat="43.60922" lon="1.23481">
        <ele>193</ele>
        <time>2022-03-12T16:38:54Z</time>
      </trkpt>
      <trkpt lat="43.60875" lon="1.23454">
        <ele>193</ele>
        <time>2022-03-12T16:39:03Z</time>
      </trkpt>
      <trkpt lat="43.6086" lon="1.23453">
        <ele>193</ele>
        <time>2022-03-12T16:39:06Z</time>
      </trkpt>
      <trkpt lat="43.60819" lon="1.23434">
        <ele>192</ele>
        <time>2022-03-12T16:39:13Z</time>
      </trkpt>
      <trkpt lat="43.60786" lon="1.23423">
        <ele>193</ele>
        <time>2022-03-12T16:39:19Z</time>
      </trkpt>
      <trkpt lat="43.60738" lon="1.23418">
        <ele>194</ele>
        <time>2022-03-12T16:39:28Z</time>
      </trkpt>
      <trkpt lat="43.60732" lon="1.2341">
        <ele>194</ele>
        <time>2022-03-12T16:39:29Z</time>
      </trkpt>
      <trkpt lat="43.60732" lon="1.23402">
        <ele>194</ele>
        <time>2022-03-12T16:39:30Z</time>
      </trkpt>
      <trkpt lat="43.60723" lon="1.23399">
        <ele>194</ele>
        <time>2022-03-12T16:39:32Z</time>
      </trkpt>
      <trkpt lat="43.60719" lon="1.23398">
        <ele>194</ele>
        <time>2022-03-12T16:39:33Z</time>
      </trkpt>
      <trkpt lat="43.60715" lon="1.23406">
        <ele>195</ele>
        <time>2022-03-12T16:39:34Z</time>
      </trkpt>
      <trkpt lat="43.60704" lon="1.23416">
        <ele>195</ele>
        <time>2022-03-12T16:39:36Z</time>
      </trkpt>
      <trkpt lat="43.60689" lon="1.23418">
        <ele>195</ele>
        <time>2022-03-12T16:39:39Z</time>
      </trkpt>
      <trkpt lat="43.60628" lon="1.23415">
        <ele>197</ele>
        <time>2022-03-12T16:39:50Z</time>
      </trkpt>
      <trkpt lat="43.60553" lon="1.23394">
        <ele>198</ele>
        <time>2022-03-12T16:40:04Z</time>
      </trkpt>
      <trkpt lat="43.6037" lon="1.23321">
        <ele>197</ele>
        <time>2022-03-12T16:40:37Z</time>
      </trkpt>
      <trkpt lat="43.60318" lon="1.2331">
        <ele>196</ele>
        <time>2022-03-12T16:40:47Z</time>
      </trkpt>
      <trkpt lat="43.60306" lon="1.23301">
        <ele>196</ele>
        <time>2022-03-12T16:40:49Z</time>
      </trkpt>
      <trkpt lat="43.60293" lon="1.23302">
        <ele>195</ele>
        <time>2022-03-12T16:40:52Z</time>
      </trkpt>
      <trkpt lat="43.60278" lon="1.23313">
        <ele>194</ele>
        <time>2022-03-12T16:40:55Z</time>
      </trkpt>
      <trkpt lat="43.60246" lon="1.23318">
        <ele>192</ele>
        <time>2022-03-12T16:41:00Z</time>
      </trkpt>
      <trkpt lat="43.60142" lon="1.23323">
        <ele>185</ele>
        <time>2022-03-12T16:41:19Z</time>
      </trkpt>
      <trkpt lat="43.60136" lon="1.23329">
        <ele>185</ele>
        <time>2022-03-12T16:41:20Z</time>
      </trkpt>
      <trkpt lat="43.60126" lon="1.2333">
        <ele>185</ele>
        <time>2022-03-12T16:41:22Z</time>
      </trkpt>
      <trkpt lat="43.60087" lon="1.23336">
        <ele>186</ele>
        <time>2022-03-12T16:41:29Z</time>
      </trkpt>
      <trkpt lat="43.60064" lon="1.23337">
        <ele>188</ele>
        <time>2022-03-12T16:41:33Z</time>
      </trkpt>
      <trkpt lat="43.60061" lon="1.23291">
        <ele>189</ele>
        <time>2022-03-12T16:41:39Z</time>
      </trkpt>
      <trkpt lat="43.60055" lon="1.23266">
        <ele>189</ele>
        <time>2022-03-12T16:41:42Z</time>
      </trkpt>
      <trkpt lat="43.60041" lon="1.23228">
        <ele>191</ele>
        <time>2022-03-12T16:41:48Z</time>
      </trkpt>
      <trkpt lat="43.60039" lon="1.23217">
        <ele>191</ele>
        <time>2022-03-12T16:41:49Z</time>
      </trkpt>
      <trkpt lat="43.60042" lon="1.2321">
        <ele>190</ele>
        <time>2022-03-12T16:41:50Z</time>
      </trkpt>
      <trkpt lat="43.60041" lon="1.23202">
        <ele>191</ele>
        <time>2022-03-12T16:41:51Z</time>
      </trkpt>
      <trkpt lat="43.60039" lon="1.23199">
        <ele>191</ele>
        <time>2022-03-12T16:41:52Z</time>
      </trkpt>
      <trkpt lat="43.60034" lon="1.23197">
        <ele>191</ele>
        <time>2022-03-12T16:41:53Z</time>
      </trkpt>
      <trkpt lat="43.60028" lon="1.23202">
        <ele>192</ele>
        <time>2022-03-12T16:41:54Z</time>
      </trkpt>
      <trkpt lat="43.60026" lon="1.23208">
        <ele>192</ele>
        <time>2022-03-12T16:41:55Z</time>
      </trkpt>
      <trkpt lat="43.60028" lon="1.23214">
        <ele>192</ele>
        <time>2022-03-12T16:41:56Z</time>
      </trkpt>
      <trkpt lat="43.59975" lon="1.2326">
        <ele>196</ele>
        <time>2022-03-12T16:42:07Z</time>
      </trkpt>
      <trkpt lat="43.59943" lon="1.23279">
        <ele>197</ele>
        <time>2022-03-12T16:42:13Z</time>
      </trkpt>
      <trkpt lat="43.59892" lon="1.2332">
        <ele>197</ele>
        <time>2022-03-12T16:42:24Z</time>
      </trkpt>
      <trkpt lat="43.59888" lon="1.23326">
        <ele>197</ele>
        <time>2022-03-12T16:42:25Z</time>
      </trkpt>
      <trkpt lat="43.59887" lon="1.23331">
        <ele>197</ele>
        <time>2022-03-12T16:42:25Z</time>
      </trkpt>
      <trkpt lat="43.59877" lon="1.23333">
        <ele>197</ele>
        <time>2022-03-12T16:42:27Z</time>
      </trkpt>
      <trkpt lat="43.59811" lon="1.23388">
        <ele>195</ele>
        <time>2022-03-12T16:42:41Z</time>
      </trkpt>
      <trkpt lat="43.59783" lon="1.23399">
        <ele>194</ele>
        <time>2022-03-12T16:42:46Z</time>
      </trkpt>
      <trkpt lat="43.59759" lon="1.23413">
        <ele>194</ele>
        <time>2022-03-12T16:42:51Z</time>
      </trkpt>
      <trkpt lat="43.59734" lon="1.23421">
        <ele>192</ele>
        <time>2022-03-12T16:42:55Z</time>
      </trkpt>
      <trkpt lat="43.59696" lon="1.23444">
        <ele>189</ele>
        <time>2022-03-12T16:43:03Z</time>
      </trkpt>
      <trkpt lat="43.5968" lon="1.23453">
        <ele>188</ele>
        <time>2022-03-12T16:43:06Z</time>
      </trkpt>
      <trkpt lat="43.59643" lon="1.23474">
        <ele>188</ele>
        <time>2022-03-12T16:43:13Z</time>
      </trkpt>
      <trkpt lat="43.59618" lon="1.23485">
        <ele>189</ele>
        <time>2022-03-12T16:43:18Z</time>
      </trkpt>
      <trkpt lat="43.59485" lon="1.2354">
        <ele>192</ele>
        <time>2022-03-12T16:43:42Z</time>
      </trkpt>
      <trkpt lat="43.59473" lon="1.23543">
        <ele>192</ele>
        <time>2022-03-12T16:43:44Z</time>
      </trkpt>
      <trkpt lat="43.594" lon="1.23547">
        <ele>193</ele>
        <time>2022-03-12T16:43:57Z</time>
      </trkpt>
      <trkpt lat="43.59345" lon="1.23554">
        <ele>195</ele>
        <time>2022-03-12T16:44:07Z</time>
      </trkpt>
      <trkpt lat="43.59234" lon="1.23581">
        <ele>198</ele>
        <time>2022-03-12T16:44:27Z</time>
      </trkpt>
      <trkpt lat="43.59103" lon="1.23599">
        <ele>198</ele>
        <time>2022-03-12T16:44:51Z</time>
      </trkpt>
      <trkpt lat="43.58839" lon="1.2366">
        <ele>198</ele>
        <time>2022-03-12T16:45:38Z</time>
      </trkpt>
      <trkpt lat="43.58765" lon="1.23672">
        <ele>196</ele>
        <time>2022-03-12T16:45:52Z</time>
      </trkpt>
      <trkpt lat="43.58703" lon="1.23686">
        <ele>196</ele>
        <time>2022-03-12T16:46:03Z</time>
      </trkpt>
      <trkpt lat="43.58594" lon="1.23713">
        <ele>196</ele>
        <time>2022-03-12T16:46:22Z</time>
      </trkpt>
      <trkpt lat="43.58566" lon="1.23713">
        <ele>196</ele>
        <time>2022-03-12T16:46:27Z</time>
      </trkpt>
      <trkpt lat="43.58413" lon="1.23675">
        <ele>198</ele>
        <time>2022-03-12T16:46:55Z</time>
      </trkpt>
      <trkpt lat="43.58353" lon="1.23662">
        <ele>199</ele>
        <time>2022-03-12T16:47:06Z</time>
      </trkpt>
      <trkpt lat="43.58173" lon="1.23646">
        <ele>201</ele>
        <time>2022-03-12T16:47:38Z</time>
      </trkpt>
      <trkpt lat="43.5812" lon="1.23641">
        <ele>200</ele>
        <time>2022-03-12T16:47:47Z</time>
      </trkpt>
      <trkpt lat="43.57619" lon="1.23597">
        <ele>201</ele>
        <time>2022-03-12T16:49:17Z</time>
      </trkpt>
      <trkpt lat="43.57587" lon="1.23596">
        <ele>202</ele>
        <time>2022-03-12T16:49:22Z</time>
      </trkpt>
      <trkpt lat="43.57575" lon="1.23598">
        <ele>202</ele>
        <time>2022-03-12T16:49:25Z</time>
      </trkpt>
      <trkpt lat="43.57586" lon="1.2369">
        <ele>201</ele>
        <time>2022-03-12T16:49:37Z</time>
      </trkpt>
      <trkpt lat="43.57587" lon="1.23707">
        <ele>201</ele>
        <time>2022-03-12T16:49:39Z</time>
      </trkpt>
      <trkpt lat="43.57585" lon="1.23726">
        <ele>202</ele>
        <time>2022-03-12T16:49:41Z</time>
      </trkpt>
      <trkpt lat="43.57567" lon="1.2372">
        <ele>201</ele>
        <time>2022-03-12T16:49:45Z</time>
      </trkpt>
      <trkpt lat="43.57491" lon="1.23683">
        <ele>200</ele>
        <time>2022-03-12T16:49:59Z</time>
      </trkpt>
      <trkpt lat="43.57491" lon="1.23688">
        <ele>200</ele>
        <time>2022-03-12T16:50:00Z</time>
      </trkpt>
      <trkpt lat="43.57461" lon="1.23674">
        <ele>200</ele>
        <time>2022-03-12T16:50:05Z</time>
      </trkpt>
      <trkpt lat="43.57491" lon="1.23688">
        <ele>200</ele>
        <time>2022-03-12T16:50:11Z</time>
      </trkpt>
      <trkpt lat="43.57491" lon="1.23683">
        <ele>200</ele>
        <time>2022-03-12T16:50:12Z</time>
      </trkpt>
      <trkpt lat="43.57298" lon="1.23588">
        <ele>201</ele>
        <time>2022-03-12T16:50:48Z</time>
      </trkpt>
      <trkpt lat="43.57279" lon="1.23576">
        <ele>201</ele>
        <time>2022-03-12T16:50:52Z</time>
      </trkpt>
      <trkpt lat="43.57234" lon="1.23537">
        <ele>199</ele>
        <time>2022-03-12T16:51:01Z</time>
      </trkpt>
      <trkpt lat="43.57143" lon="1.23474">
        <ele>199</ele>
        <time>2022-03-12T16:51:19Z</time>
      </trkpt>
      <trkpt lat="43.56963" lon="1.23353">
        <ele>199</ele>
        <time>2022-03-12T16:51:55Z</time>
      </trkpt>
      <trkpt lat="43.56919" lon="1.23325">
        <ele>199</ele>
        <time>2022-03-12T16:52:03Z</time>
      </trkpt>
      <trkpt lat="43.56911" lon="1.23323">
        <ele>199</ele>
        <time>2022-03-12T16:52:05Z</time>
      </trkpt>
      <trkpt lat="43.56881" lon="1.23329">
        <ele>199</ele>
        <time>2022-03-12T16:52:10Z</time>
      </trkpt>
      <trkpt lat="43.56822" lon="1.23346">
        <ele>198</ele>
        <time>2022-03-12T16:52:21Z</time>
      </trkpt>
      <trkpt lat="43.56706" lon="1.23354">
        <ele>196</ele>
        <time>2022-03-12T16:52:42Z</time>
      </trkpt>
      <trkpt lat="43.56646" lon="1.23352">
        <ele>194</ele>
        <time>2022-03-12T16:52:52Z</time>
      </trkpt>
      <trkpt lat="43.56584" lon="1.23358">
        <ele>186</ele>
        <time>2022-03-12T16:53:03Z</time>
      </trkpt>
      <trkpt lat="43.56558" lon="1.23359">
        <ele>185</ele>
        <time>2022-03-12T16:53:08Z</time>
      </trkpt>
      <trkpt lat="43.5652" lon="1.23357">
        <ele>183</ele>
        <time>2022-03-12T16:53:15Z</time>
      </trkpt>
      <trkpt lat="43.56482" lon="1.23349">
        <ele>182</ele>
        <time>2022-03-12T16:53:22Z</time>
      </trkpt>
      <trkpt lat="43.564" lon="1.23325">
        <ele>182</ele>
        <time>2022-03-12T16:53:37Z</time>
      </trkpt>
      <trkpt lat="43.56381" lon="1.2332">
        <ele>183</ele>
        <time>2022-03-12T16:53:40Z</time>
      </trkpt>
      <trkpt lat="43.56323" lon="1.23326">
        <ele>185</ele>
        <time>2022-03-12T16:53:50Z</time>
      </trkpt>
      <trkpt lat="43.56311" lon="1.23324">
        <ele>185</ele>
        <time>2022-03-12T16:53:53Z</time>
      </trkpt>
      <trkpt lat="43.5619" lon="1.23282">
        <ele>196</ele>
        <time>2022-03-12T16:54:15Z</time>
      </trkpt>
      <trkpt lat="43.56167" lon="1.23263">
        <ele>199</ele>
        <time>2022-03-12T16:54:20Z</time>
      </trkpt>
      <trkpt lat="43.56091" lon="1.23171">
        <ele>201</ele>
        <time>2022-03-12T16:54:38Z</time>
      </trkpt>
      <trkpt lat="43.5606" lon="1.23126">
        <ele>201</ele>
        <time>2022-03-12T16:54:46Z</time>
      </trkpt>
      <trkpt lat="43.56031" lon="1.23074">
        <ele>201</ele>
        <time>2022-03-12T16:54:54Z</time>
      </trkpt>
      <trkpt lat="43.55999" lon="1.23025">
        <ele>201</ele>
        <time>2022-03-12T16:55:02Z</time>
      </trkpt>
      <trkpt lat="43.55966" lon="1.22978">
        <ele>201</ele>
        <time>2022-03-12T16:55:11Z</time>
      </trkpt>
      <trkpt lat="43.55954" lon="1.22956">
        <ele>200</ele>
        <time>2022-03-12T16:55:14Z</time>
      </trkpt>
      <trkpt lat="43.55873" lon="1.22783">
        <ele>202</ele>
        <time>2022-03-12T16:55:41Z</time>
      </trkpt>
      <trkpt lat="43.55854" lon="1.2275">
        <ele>203</ele>
        <time>2022-03-12T16:55:46Z</time>
      </trkpt>
      <trkpt lat="43.55788" lon="1.22665">
        <ele>203</ele>
        <time>2022-03-12T16:56:03Z</time>
      </trkpt>
      <trkpt lat="43.55776" lon="1.22655">
        <ele>202</ele>
        <time>2022-03-12T16:56:05Z</time>
      </trkpt>
      <trkpt lat="43.5564" lon="1.22644">
        <ele>201</ele>
        <time>2022-03-12T16:56:29Z</time>
      </trkpt>
      <trkpt lat="43.55548" lon="1.22635">
        <ele>203</ele>
        <time>2022-03-12T16:56:46Z</time>
      </trkpt>
      <trkpt lat="43.55534" lon="1.22636">
        <ele>203</ele>
        <time>2022-03-12T16:56:48Z</time>
      </trkpt>
      <trkpt lat="43.5542" lon="1.2268">
        <ele>202</ele>
        <time>2022-03-12T16:57:09Z</time>
      </trkpt>
      <trkpt lat="43.55347" lon="1.22717">
        <ele>204</ele>
        <time>2022-03-12T16:57:23Z</time>
      </trkpt>
      <trkpt lat="43.55323" lon="1.2272">
        <ele>204</ele>
        <time>2022-03-12T16:57:27Z</time>
      </trkpt>
      <trkpt lat="43.55303" lon="1.22718">
        <ele>205</ele>
        <time>2022-03-12T16:57:31Z</time>
      </trkpt>
      <trkpt lat="43.55285" lon="1.22719">
        <ele>205</ele>
        <time>2022-03-12T16:57:34Z</time>
      </trkpt>
      <trkpt lat="43.55181" lon="1.22761">
        <ele>207</ele>
        <time>2022-03-12T16:57:53Z</time>
      </trkpt>
      <trkpt lat="43.5511" lon="1.22788">
        <ele>205</ele>
        <time>2022-03-12T16:58:07Z</time>
      </trkpt>
      <trkpt lat="43.55112" lon="1.22607">
        <ele>208</ele>
        <time>2022-03-12T16:58:30Z</time>
      </trkpt>
      <trkpt lat="43.55109" lon="1.22564">
        <ele>207</ele>
        <time>2022-03-12T16:58:35Z</time>
      </trkpt>
      <trkpt lat="43.55087" lon="1.22437">
        <ele>208</ele>
        <time>2022-03-12T16:58:52Z</time>
      </trkpt>
      <trkpt lat="43.55062" lon="1.22272">
        <ele>206</ele>
        <time>2022-03-12T16:59:14Z</time>
      </trkpt>
      <trkpt lat="43.5504" lon="1.22151">
        <ele>207</ele>
        <time>2022-03-12T16:59:30Z</time>
      </trkpt>
      <trkpt lat="43.54972" lon="1.2186">
        <ele>208</ele>
        <time>2022-03-12T17:00:10Z</time>
      </trkpt>
      <trkpt lat="43.54956" lon="1.21844">
        <ele>208</ele>
        <time>2022-03-12T17:00:13Z</time>
      </trkpt>
      <trkpt lat="43.54939" lon="1.21836">
        <ele>208</ele>
        <time>2022-03-12T17:00:16Z</time>
      </trkpt>
      <trkpt lat="43.5486" lon="1.21725">
        <ele>207</ele>
        <time>2022-03-12T17:00:36Z</time>
      </trkpt>
      <trkpt lat="43.54757" lon="1.21613">
        <ele>207</ele>
        <time>2022-03-12T17:01:00Z</time>
      </trkpt>
      <trkpt lat="43.5472" lon="1.21567">
        <ele>207</ele>
        <time>2022-03-12T17:01:08Z</time>
      </trkpt>
      <trkpt lat="43.54681" lon="1.21505">
        <ele>207</ele>
        <time>2022-03-12T17:01:19Z</time>
      </trkpt>
      <trkpt lat="43.54647" lon="1.21437">
        <ele>207</ele>
        <time>2022-03-12T17:01:30Z</time>
      </trkpt>
      <trkpt lat="43.5458" lon="1.21273">
        <ele>207</ele>
        <time>2022-03-12T17:01:54Z</time>
      </trkpt>
      <trkpt lat="43.54565" lon="1.21239">
        <ele>207</ele>
        <time>2022-03-12T17:01:59Z</time>
      </trkpt>
      <trkpt lat="43.54502" lon="1.21094">
        <ele>208</ele>
        <time>2022-03-12T17:02:21Z</time>
      </trkpt>
      <trkpt lat="43.54531" lon="1.20946">
        <ele>210</ele>
        <time>2022-03-12T17:02:41Z</time>
      </trkpt>
      <trkpt lat="43.54599" lon="1.20573">
        <ele>207</ele>
        <time>2022-03-12T17:03:30Z</time>
      </trkpt>
      <trkpt lat="43.54612" lon="1.20429">
        <ele>208</ele>
        <time>2022-03-12T17:03:49Z</time>
      </trkpt>
      <trkpt lat="43.54613" lon="1.20396">
        <ele>207</ele>
        <time>2022-03-12T17:03:53Z</time>
      </trkpt>
      <trkpt lat="43.54611" lon="1.20371">
        <ele>207</ele>
        <time>2022-03-12T17:03:57Z</time>
      </trkpt>
      <trkpt lat="43.54605" lon="1.20343">
        <ele>206</ele>
        <time>2022-03-12T17:04:00Z</time>
      </trkpt>
      <trkpt lat="43.54569" lon="1.20202">
        <ele>206</ele>
        <time>2022-03-12T17:04:20Z</time>
      </trkpt>
      <trkpt lat="43.54565" lon="1.20176">
        <ele>206</ele>
        <time>2022-03-12T17:04:23Z</time>
      </trkpt>
      <trkpt lat="43.54564" lon="1.20154">
        <ele>206</ele>
        <time>2022-03-12T17:04:26Z</time>
      </trkpt>
      <trkpt lat="43.54569" lon="1.2003">
        <ele>209</ele>
        <time>2022-03-12T17:04:42Z</time>
      </trkpt>
      <trkpt lat="43.54569" lon="1.19981">
        <ele>212</ele>
        <time>2022-03-12T17:04:48Z</time>
      </trkpt>
      <trkpt lat="43.5455" lon="1.19883">
        <ele>213</ele>
        <time>2022-03-12T17:05:01Z</time>
      </trkpt>
      <trkpt lat="43.5452" lon="1.19788">
        <ele>208</ele>
        <time>2022-03-12T17:05:15Z</time>
      </trkpt>
      <trkpt lat="43.54515" lon="1.19752">
        <ele>206</ele>
        <time>2022-03-12T17:05:19Z</time>
      </trkpt>
      <trkpt lat="43.54513" lon="1.19739">
        <ele>205</ele>
        <time>2022-03-12T17:05:21Z</time>
      </trkpt>
      <trkpt lat="43.545" lon="1.19663">
        <ele>203</ele>
        <time>2022-03-12T17:05:31Z</time>
      </trkpt>
      <trkpt lat="43.54492" lon="1.19488">
        <ele>204</ele>
        <time>2022-03-12T17:05:54Z</time>
      </trkpt>
      <trkpt lat="43.54469" lon="1.19359">
        <ele>205</ele>
        <time>2022-03-12T17:06:11Z</time>
      </trkpt>
      <trkpt lat="43.54469" lon="1.19329">
        <ele>206</ele>
        <time>2022-03-12T17:06:15Z</time>
      </trkpt>
      <trkpt lat="43.54483" lon="1.192">
        <ele>206</ele>
        <time>2022-03-12T17:06:32Z</time>
      </trkpt>
      <trkpt lat="43.54491" lon="1.19163">
        <ele>206</ele>
        <time>2022-03-12T17:06:37Z</time>
      </trkpt>
      <trkpt lat="43.54501" lon="1.1913">
        <ele>206</ele>
        <time>2022-03-12T17:06:41Z</time>
      </trkpt>
      <trkpt lat="43.5451" lon="1.19131">
        <ele>206</ele>
        <time>2022-03-12T17:06:43Z</time>
      </trkpt>
      <trkpt lat="43.54519" lon="1.19127">
        <ele>206</ele>
        <time>2022-03-12T17:06:44Z</time>
      </trkpt>
      <trkpt lat="43.54525" lon="1.19117">
        <ele>206</ele>
        <time>2022-03-12T17:06:46Z</time>
      </trkpt>
      <trkpt lat="43.54527" lon="1.19104">
        <ele>206</ele>
        <time>2022-03-12T17:06:48Z</time>
      </trkpt>
      <trkpt lat="43.54524" lon="1.1909">
        <ele>206</ele>
        <time>2022-03-12T17:06:50Z</time>
      </trkpt>
      <trkpt lat="43.54515" lon="1.1908">
        <ele>206</ele>
        <time>2022-03-12T17:06:52Z</time>
      </trkpt>
      <trkpt lat="43.54511" lon="1.19078">
        <ele>206</ele>
        <time>2022-03-12T17:06:53Z</time>
      </trkpt>
      <trkpt lat="43.54499" lon="1.1908">
        <ele>206</ele>
        <time>2022-03-12T17:06:55Z</time>
      </trkpt>
      <trkpt lat="43.54493" lon="1.19086">
        <ele>206</ele>
        <time>2022-03-12T17:06:56Z</time>
      </trkpt>
      <trkpt lat="43.54488" lon="1.19102">
        <ele>206</ele>
        <time>2022-03-12T17:06:58Z</time>
      </trkpt>
      <trkpt lat="43.54404" lon="1.19095">
        <ele>206</ele>
        <time>2022-03-12T17:07:13Z</time>
      </trkpt>
      <trkpt lat="43.54367" lon="1.19089">
        <ele>207</ele>
        <time>2022-03-12T17:07:20Z</time>
      </trkpt>
      <trkpt lat="43.54328" lon="1.19077">
        <ele>207</ele>
        <time>2022-03-12T17:07:27Z</time>
      </trkpt>
      <trkpt lat="43.5428" lon="1.19057">
        <ele>208</ele>
        <time>2022-03-12T17:07:36Z</time>
      </trkpt>
      <trkpt lat="43.54254" lon="1.19044">
        <ele>208</ele>
        <time>2022-03-12T17:07:41Z</time>
      </trkpt>
      <trkpt lat="43.54125" lon="1.1894">
        <ele>206</ele>
        <time>2022-03-12T17:08:07Z</time>
      </trkpt>
      <trkpt lat="43.5407" lon="1.18902">
        <ele>207</ele>
        <time>2022-03-12T17:08:18Z</time>
      </trkpt>
      <trkpt lat="43.53993" lon="1.18855">
        <ele>209</ele>
        <time>2022-03-12T17:08:33Z</time>
      </trkpt>
      <trkpt lat="43.53995" lon="1.18841">
        <ele>210</ele>
        <time>2022-03-12T17:08:35Z</time>
      </trkpt>
      <trkpt lat="43.53993" lon="1.18834">
        <ele>210</ele>
        <time>2022-03-12T17:08:36Z</time>
      </trkpt>
      <trkpt lat="43.53986" lon="1.18823">
        <ele>210</ele>
        <time>2022-03-12T17:08:38Z</time>
      </trkpt>
      <trkpt lat="43.53975" lon="1.18821">
        <ele>209</ele>
        <time>2022-03-12T17:08:40Z</time>
      </trkpt>
      <trkpt lat="43.53966" lon="1.18828">
        <ele>209</ele>
        <time>2022-03-12T17:08:42Z</time>
      </trkpt>
      <trkpt lat="43.53963" lon="1.18834">
        <ele>210</ele>
        <time>2022-03-12T17:08:43Z</time>
      </trkpt>
      <trkpt lat="43.53872" lon="1.18763">
        <ele>208</ele>
        <time>2022-03-12T17:09:01Z</time>
      </trkpt>
      <trkpt lat="43.53749" lon="1.18675">
        <ele>214</ele>
        <time>2022-03-12T17:09:26Z</time>
      </trkpt>
      <trkpt lat="43.53709" lon="1.18651">
        <ele>214</ele>
        <time>2022-03-12T17:09:34Z</time>
      </trkpt>
      <trkpt lat="43.53511" lon="1.18552">
        <ele>209</ele>
        <time>2022-03-12T17:10:11Z</time>
      </trkpt>
      <trkpt lat="43.53383" lon="1.18501">
        <ele>209</ele>
        <time>2022-03-12T17:10:35Z</time>
      </trkpt>
      <trkpt lat="43.53255" lon="1.18454">
        <ele>209</ele>
        <time>2022-03-12T17:10:59Z</time>
      </trkpt>
      <trkpt lat="43.53235" lon="1.18453">
        <ele>209</ele>
        <time>2022-03-12T17:11:02Z</time>
      </trkpt>
      <trkpt lat="43.53189" lon="1.18466">
        <ele>209</ele>
        <time>2022-03-12T17:11:10Z</time>
      </trkpt>
      <trkpt lat="43.53185" lon="1.18465">
        <ele>209</ele>
        <time>2022-03-12T17:11:11Z</time>
      </trkpt>
      <trkpt lat="43.53177" lon="1.18466">
        <ele>209</ele>
        <time>2022-03-12T17:11:13Z</time>
      </trkpt>
      <trkpt lat="43.53172" lon="1.18469">
        <ele>209</ele>
        <time>2022-03-12T17:11:14Z</time>
      </trkpt>
      <trkpt lat="43.53167" lon="1.18479">
        <ele>209</ele>
        <time>2022-03-12T17:11:15Z</time>
      </trkpt>
      <trkpt lat="43.53165" lon="1.18491">
        <ele>209</ele>
        <time>2022-03-12T17:11:17Z</time>
      </trkpt>
      <trkpt lat="43.53169" lon="1.18503">
        <ele>209</ele>
        <time>2022-03-12T17:11:18Z</time>
      </trkpt>
      <trkpt lat="43.5316" lon="1.18541">
        <ele>209</ele>
        <time>2022-03-12T17:11:24Z</time>
      </trkpt>
      <trkpt lat="43.53099" lon="1.18688">
        <ele>211</ele>
        <time>2022-03-12T17:11:45Z</time>
      </trkpt>
      <trkpt lat="43.53072" lon="1.18764">
        <ele>211</ele>
        <time>2022-03-12T17:11:56Z</time>
      </trkpt>
      <trkpt lat="43.53047" lon="1.18842">
        <ele>210</ele>
        <time>2022-03-12T17:12:07Z</time>
      </trkpt>
      <trkpt lat="43.53009" lon="1.18989">
        <ele>210</ele>
        <time>2022-03-12T17:12:27Z</time>
      </trkpt>
      <trkpt lat="43.52988" lon="1.19119">
        <ele>211</ele>
        <time>2022-03-12T17:12:45Z</time>
      </trkpt>
      <trkpt lat="43.52976" lon="1.19235">
        <ele>211</ele>
        <time>2022-03-12T17:13:00Z</time>
      </trkpt>
      <trkpt lat="43.52966" lon="1.19448">
        <ele>209</ele>
        <time>2022-03-12T17:13:27Z</time>
      </trkpt>
      <trkpt lat="43.52952" lon="1.19589">
        <ele>210</ele>
        <time>2022-03-12T17:13:46Z</time>
      </trkpt>
      <trkpt lat="43.52933" lon="1.19694">
        <ele>210</ele>
        <time>2022-03-12T17:14:00Z</time>
      </trkpt>
      <trkpt lat="43.52912" lon="1.19793">
        <ele>211</ele>
        <time>2022-03-12T17:14:13Z</time>
      </trkpt>
      <trkpt lat="43.52886" lon="1.19889">
        <ele>211</ele>
        <time>2022-03-12T17:14:26Z</time>
      </trkpt>
      <trkpt lat="43.52849" lon="1.19999">
        <ele>212</ele>
        <time>2022-03-12T17:14:42Z</time>
      </trkpt>
      <trkpt lat="43.52806" lon="1.20101">
        <ele>211</ele>
        <time>2022-03-12T17:14:57Z</time>
      </trkpt>
      <trkpt lat="43.52763" lon="1.20187">
        <ele>213</ele>
        <time>2022-03-12T17:15:11Z</time>
      </trkpt>
      <trkpt lat="43.52622" lon="1.20445">
        <ele>212</ele>
        <time>2022-03-12T17:15:52Z</time>
      </trkpt>
      <trkpt lat="43.52603" lon="1.20471">
        <ele>212</ele>
        <time>2022-03-12T17:15:57Z</time>
      </trkpt>
      <trkpt lat="43.52594" lon="1.20481">
        <ele>212</ele>
        <time>2022-03-12T17:15:59Z</time>
      </trkpt>
      <trkpt lat="43.52585" lon="1.20481">
        <ele>212</ele>
        <time>2022-03-12T17:16:01Z</time>
      </trkpt>
      <trkpt lat="43.52579" lon="1.20485">
        <ele>212</ele>
        <time>2022-03-12T17:16:02Z</time>
      </trkpt>
      <trkpt lat="43.52574" lon="1.20494">
        <ele>212</ele>
        <time>2022-03-12T17:16:03Z</time>
      </trkpt>
      <trkpt lat="43.52573" lon="1.20507">
        <ele>213</ele>
        <time>2022-03-12T17:16:05Z</time>
      </trkpt>
      <trkpt lat="43.52546" lon="1.2053">
        <ele>214</ele>
        <time>2022-03-12T17:16:11Z</time>
      </trkpt>
      <trkpt lat="43.52446" lon="1.20594">
        <ele>215</ele>
        <time>2022-03-12T17:16:30Z</time>
      </trkpt>
      <trkpt lat="43.52381" lon="1.20613">
        <ele>213</ele>
        <time>2022-03-12T17:16:42Z</time>
      </trkpt>
      <trkpt lat="43.52316" lon="1.20613">
        <ele>213</ele>
        <time>2022-03-12T17:16:54Z</time>
      </trkpt>
      <trkpt lat="43.52126" lon="1.20562">
        <ele>202</ele>
        <time>2022-03-12T17:17:28Z</time>
      </trkpt>
      <trkpt lat="43.52014" lon="1.20541">
        <ele>193</ele>
        <time>2022-03-12T17:17:48Z</time>
      </trkpt>
      <trkpt lat="43.51983" lon="1.20536">
        <ele>193</ele>
        <time>2022-03-12T17:17:54Z</time>
      </trkpt>
      <trkpt lat="43.51909" lon="1.20523">
        <ele>193</ele>
        <time>2022-03-12T17:18:07Z</time>
      </trkpt>
      <trkpt lat="43.51674" lon="1.2047">
        <ele>211</ele>
        <time>2022-03-12T17:18:49Z</time>
      </trkpt>
      <trkpt lat="43.51559" lon="1.20471">
        <ele>210</ele>
        <time>2022-03-12T17:19:10Z</time>
      </trkpt>
      <trkpt lat="43.51487" lon="1.20468">
        <ele>210</ele>
        <time>2022-03-12T17:19:23Z</time>
      </trkpt>
      <trkpt lat="43.51465" lon="1.20458">
        <ele>211</ele>
        <time>2022-03-12T17:19:27Z</time>
      </trkpt>
      <trkpt lat="43.51458" lon="1.20453">
        <ele>211</ele>
        <time>2022-03-12T17:19:28Z</time>
      </trkpt>
      <trkpt lat="43.51452" lon="1.20445">
        <ele>211</ele>
        <time>2022-03-12T17:19:30Z</time>
      </trkpt>
      <trkpt lat="43.51445" lon="1.20442">
        <ele>212</ele>
        <time>2022-03-12T17:19:31Z</time>
      </trkpt>
      <trkpt lat="43.51435" lon="1.20445">
        <ele>212</ele>
        <time>2022-03-12T17:19:33Z</time>
      </trkpt>
      <trkpt lat="43.51429" lon="1.20455">
        <ele>211</ele>
        <time>2022-03-12T17:19:34Z</time>
      </trkpt>
      <trkpt lat="43.51427" lon="1.20466">
        <ele>211</ele>
        <time>2022-03-12T17:19:36Z</time>
      </trkpt>
      <trkpt lat="43.51429" lon="1.20476">
        <ele>211</ele>
        <time>2022-03-12T17:19:37Z</time>
      </trkpt>
      <trkpt lat="43.51436" lon="1.20485">
        <ele>210</ele>
        <time>2022-03-12T17:19:39Z</time>
      </trkpt>
      <trkpt lat="43.51441" lon="1.20499">
        <ele>210</ele>
        <time>2022-03-12T17:19:41Z</time>
      </trkpt>
      <trkpt lat="43.51446" lon="1.20535">
        <ele>209</ele>
        <time>2022-03-12T17:19:46Z</time>
      </trkpt>
      <trkpt lat="43.51447" lon="1.2058">
        <ele>209</ele>
        <time>2022-03-12T17:19:51Z</time>
      </trkpt>
      <trkpt lat="43.51443" lon="1.2064">
        <ele>210</ele>
        <time>2022-03-12T17:19:59Z</time>
      </trkpt>
      <trkpt lat="43.51418" lon="1.20845">
        <ele>210</ele>
        <time>2022-03-12T17:20:26Z</time>
      </trkpt>
      <trkpt lat="43.51408" lon="1.20897">
        <ele>208</ele>
        <time>2022-03-12T17:20:33Z</time>
      </trkpt>
      <trkpt lat="43.51329" lon="1.21191">
        <ele>209</ele>
        <time>2022-03-12T17:21:13Z</time>
      </trkpt>
      <trkpt lat="43.51302" lon="1.21271">
        <ele>210</ele>
        <time>2022-03-12T17:21:25Z</time>
      </trkpt>
      <trkpt lat="43.5129" lon="1.21298">
        <ele>210</ele>
        <time>2022-03-12T17:21:29Z</time>
      </trkpt>
      <trkpt lat="43.51282" lon="1.2129">
        <ele>210</ele>
        <time>2022-03-12T17:21:31Z</time>
      </trkpt>
      <trkpt lat="43.51268" lon="1.21282">
        <ele>210</ele>
        <time>2022-03-12T17:21:33Z</time>
      </trkpt>
      <trkpt lat="43.51254" lon="1.21283">
        <ele>210</ele>
        <time>2022-03-12T17:21:36Z</time>
      </trkpt>
      <trkpt lat="43.51245" lon="1.21288">
        <ele>210</ele>
        <time>2022-03-12T17:21:38Z</time>
      </trkpt>
      <trkpt lat="43.51232" lon="1.21308">
        <ele>209</ele>
        <time>2022-03-12T17:21:41Z</time>
      </trkpt>
      <trkpt lat="43.51225" lon="1.21316">
        <ele>209</ele>
        <time>2022-03-12T17:21:43Z</time>
      </trkpt>
      <trkpt lat="43.51218" lon="1.21318">
        <ele>209</ele>
        <time>2022-03-12T17:21:44Z</time>
      </trkpt>
      <trkpt lat="43.51212" lon="1.21315">
        <ele>210</ele>
        <time>2022-03-12T17:21:45Z</time>
      </trkpt>
      <trkpt lat="43.51148" lon="1.21205">
        <ele>210</ele>
        <time>2022-03-12T17:22:03Z</time>
      </trkpt>
      <trkpt lat="43.51113" lon="1.21161">
        <ele>211</ele>
        <time>2022-03-12T17:22:12Z</time>
      </trkpt>
      <trkpt lat="43.51002" lon="1.21045">
        <ele>212</ele>
        <time>2022-03-12T17:22:37Z</time>
      </trkpt>
      <trkpt lat="43.5093" lon="1.20987">
        <ele>211</ele>
        <time>2022-03-12T17:22:51Z</time>
      </trkpt>
      <trkpt lat="43.50814" lon="1.20875">
        <ele>212</ele>
        <time>2022-03-12T17:23:17Z</time>
      </trkpt>
      <trkpt lat="43.50697" lon="1.20796">
        <ele>210</ele>
        <time>2022-03-12T17:23:40Z</time>
      </trkpt>
      <trkpt lat="43.50684" lon="1.20792">
        <ele>210</ele>
        <time>2022-03-12T17:23:42Z</time>
      </trkpt>
      <trkpt lat="43.50617" lon="1.20782">
        <ele>210</ele>
        <time>2022-03-12T17:23:54Z</time>
      </trkpt>
      <trkpt lat="43.50531" lon="1.20775">
        <ele>209</ele>
        <time>2022-03-12T17:24:09Z</time>
      </trkpt>
      <trkpt lat="43.50362" lon="1.20773">
        <ele>213</ele>
        <time>2022-03-12T17:24:40Z</time>
      </trkpt>
      <trkpt lat="43.50342" lon="1.20771">
        <ele>213</ele>
        <time>2022-03-12T17:24:43Z</time>
      </trkpt>
      <trkpt lat="43.50332" lon="1.20765">
        <ele>214</ele>
        <time>2022-03-12T17:24:45Z</time>
      </trkpt>
      <trkpt lat="43.50176" lon="1.20619">
        <ele>213</ele>
        <time>2022-03-12T17:25:19Z</time>
      </trkpt>
      <trkpt lat="43.4983" lon="1.2029">
        <ele>218</ele>
        <time>2022-03-12T17:26:33Z</time>
      </trkpt>
      <trkpt lat="43.49804" lon="1.20273">
        <ele>218</ele>
        <time>2022-03-12T17:26:38Z</time>
      </trkpt>
      <trkpt lat="43.49758" lon="1.20256">
        <ele>219</ele>
        <time>2022-03-12T17:26:47Z</time>
      </trkpt>
      <trkpt lat="43.497" lon="1.20229">
        <ele>218</ele>
        <time>2022-03-12T17:26:58Z</time>
      </trkpt>
      <trkpt lat="43.49609" lon="1.20163">
        <ele>218</ele>
        <time>2022-03-12T17:27:16Z</time>
      </trkpt>
      <trkpt lat="43.49544" lon="1.20112">
        <ele>219</ele>
        <time>2022-03-12T17:27:29Z</time>
      </trkpt>
      <trkpt lat="43.49513" lon="1.20085">
        <ele>219</ele>
        <time>2022-03-12T17:27:36Z</time>
      </trkpt>
      <trkpt lat="43.49507" lon="1.20077">
        <ele>219</ele>
        <time>2022-03-12T17:27:37Z</time>
      </trkpt>
      <trkpt lat="43.49538" lon="1.20058">
        <ele>218</ele>
        <time>2022-03-12T17:27:43Z</time>
      </trkpt>
      <trkpt lat="43.49581" lon="1.20042">
        <ele>218</ele>
        <time>2022-03-12T17:27:51Z</time>
      </trkpt>
      <trkpt lat="43.49632" lon="1.20017">
        <ele>217</ele>
        <time>2022-03-12T17:28:01Z</time>
      </trkpt>
      <trkpt lat="43.49663" lon="1.19991">
        <ele>216</ele>
        <time>2022-03-12T17:28:08Z</time>
      </trkpt>
      <trkpt lat="43.49705" lon="1.19952">
        <ele>217</ele>
        <time>2022-03-12T17:28:17Z</time>
      </trkpt>
      <trkpt lat="43.49749" lon="1.19916">
        <ele>216</ele>
        <time>2022-03-12T17:28:26Z</time>
      </trkpt>
      <trkpt lat="43.49844" lon="1.19859">
        <ele>216</ele>
        <time>2022-03-12T17:28:44Z</time>
      </trkpt>
      <trkpt lat="43.49871" lon="1.19831">
        <ele>216</ele>
        <time>2022-03-12T17:28:50Z</time>
      </trkpt>
      <trkpt lat="43.49961" lon="1.19696">
        <ele>217</ele>
        <time>2022-03-12T17:29:14Z</time>
      </trkpt>
      <trkpt lat="43.50018" lon="1.19604">
        <ele>218</ele>
        <time>2022-03-12T17:29:29Z</time>
      </trkpt>
      <trkpt lat="43.50032" lon="1.1957">
        <ele>218</ele>
        <time>2022-03-12T17:29:34Z</time>
      </trkpt>
      <trkpt lat="43.50054" lon="1.19509">
        <ele>217</ele>
        <time>2022-03-12T17:29:43Z</time>
      </trkpt>
      <trkpt lat="43.5007" lon="1.19473">
        <ele>217</ele>
        <time>2022-03-12T17:29:49Z</time>
      </trkpt>
      <trkpt lat="43.50086" lon="1.19445">
        <ele>218</ele>
        <time>2022-03-12T17:29:53Z</time>
      </trkpt>
      <trkpt lat="43.50205" lon="1.19289">
        <ele>218</ele>
        <time>2022-03-12T17:30:22Z</time>
      </trkpt>
      <trkpt lat="43.50218" lon="1.19268">
        <ele>218</ele>
        <time>2022-03-12T17:30:26Z</time>
      </trkpt>
      <trkpt lat="43.50229" lon="1.19241">
        <ele>218</ele>
        <time>2022-03-12T17:30:30Z</time>
      </trkpt>
      <trkpt lat="43.50298" lon="1.19022">
        <ele>216</ele>
        <time>2022-03-12T17:31:01Z</time>
      </trkpt>
      <trkpt lat="43.50311" lon="1.18999">
        <ele>217</ele>
        <time>2022-03-12T17:31:05Z</time>
      </trkpt>
      <trkpt lat="43.50338" lon="1.1896">
        <ele>217</ele>
        <time>2022-03-12T17:31:12Z</time>
      </trkpt>
      <trkpt lat="43.5044" lon="1.18826">
        <ele>217</ele>
        <time>2022-03-12T17:31:37Z</time>
      </trkpt>
      <trkpt lat="43.50559" lon="1.18663">
        <ele>217</ele>
        <time>2022-03-12T17:32:06Z</time>
      </trkpt>
      <trkpt lat="43.50577" lon="1.18625">
        <ele>217</ele>
        <time>2022-03-12T17:32:12Z</time>
      </trkpt>
      <trkpt lat="43.5058" lon="1.18618">
        <ele>217</ele>
        <time>2022-03-12T17:32:13Z</time>
      </trkpt>
      <trkpt lat="43.50663" lon="1.18441">
        <ele>214</ele>
        <time>2022-03-12T17:32:41Z</time>
      </trkpt>
      <trkpt lat="43.50711" lon="1.18332">
        <ele>214</ele>
        <time>2022-03-12T17:32:57Z</time>
      </trkpt>
      <trkpt lat="43.50744" lon="1.18272">
        <ele>215</ele>
        <time>2022-03-12T17:33:07Z</time>
      </trkpt>
      <trkpt lat="43.50848" lon="1.18106">
        <ele>217</ele>
        <time>2022-03-12T17:33:35Z</time>
      </trkpt>
      <trkpt lat="43.50886" lon="1.18062">
        <ele>217</ele>
        <time>2022-03-12T17:33:44Z</time>
      </trkpt>
      <trkpt lat="43.5082" lon="1.17976">
        <ele>217</ele>
        <time>2022-03-12T17:34:00Z</time>
      </trkpt>
      <trkpt lat="43.5057" lon="1.1764">
        <ele>218</ele>
        <time>2022-03-12T17:35:02Z</time>
      </trkpt>
      <trkpt lat="43.50563" lon="1.17638">
        <ele>218</ele>
        <time>2022-03-12T17:35:03Z</time>
      </trkpt>
      <trkpt lat="43.50554" lon="1.1764">
        <ele>218</ele>
        <time>2022-03-12T17:35:05Z</time>
      </trkpt>
      <trkpt lat="43.50552" lon="1.17642">
        <ele>218</ele>
        <time>2022-03-12T17:35:05Z</time>
      </trkpt>
      <trkpt lat="43.50495" lon="1.17702">
        <ele>217</ele>
        <time>2022-03-12T17:35:18Z</time>
      </trkpt>
      <trkpt lat="43.50474" lon="1.17721">
        <ele>218</ele>
        <time>2022-03-12T17:35:23Z</time>
      </trkpt>
      <trkpt lat="43.50459" lon="1.17727">
        <ele>218</ele>
        <time>2022-03-12T17:35:25Z</time>
      </trkpt>
      <trkpt lat="43.50447" lon="1.17721">
        <ele>217</ele>
        <time>2022-03-12T17:35:28Z</time>
      </trkpt>
      <trkpt lat="43.50433" lon="1.17709">
        <ele>217</ele>
        <time>2022-03-12T17:35:31Z</time>
      </trkpt>
      <trkpt lat="43.50369" lon="1.17626">
        <ele>216</ele>
        <time>2022-03-12T17:35:46Z</time>
      </trkpt>
      <trkpt lat="43.50345" lon="1.17611">
        <ele>215</ele>
        <time>2022-03-12T17:35:51Z</time>
      </trkpt>
      <trkpt lat="43.50321" lon="1.17603">
        <ele>215</ele>
        <time>2022-03-12T17:35:55Z</time>
      </trkpt>
      <trkpt lat="43.50277" lon="1.17596">
        <ele>216</ele>
        <time>2022-03-12T17:36:03Z</time>
      </trkpt>
      <trkpt lat="43.50033" lon="1.17617">
        <ele>218</ele>
        <time>2022-03-12T17:36:47Z</time>
      </trkpt>
      <trkpt lat="43.49989" lon="1.17625">
        <ele>217</ele>
        <time>2022-03-12T17:36:55Z</time>
      </trkpt>
      <trkpt lat="43.49952" lon="1.1765">
        <ele>216</ele>
        <time>2022-03-12T17:37:02Z</time>
      </trkpt>
      <trkpt lat="43.49861" lon="1.17732">
        <ele>217</ele>
        <time>2022-03-12T17:37:21Z</time>
      </trkpt>
      <trkpt lat="43.49825" lon="1.17763">
        <ele>217</ele>
        <time>2022-03-12T17:37:29Z</time>
      </trkpt>
      <trkpt lat="43.49782" lon="1.17782">
        <ele>217</ele>
        <time>2022-03-12T17:37:37Z</time>
      </trkpt>
      <trkpt lat="43.4973" lon="1.17799">
        <ele>217</ele>
        <time>2022-03-12T17:37:46Z</time>
      </trkpt>
      <trkpt lat="43.49653" lon="1.17828">
        <ele>218</ele>
        <time>2022-03-12T17:38:01Z</time>
      </trkpt>
      <trkpt lat="43.49544" lon="1.17864">
        <ele>218</ele>
        <time>2022-03-12T17:38:21Z</time>
      </trkpt>
      <trkpt lat="43.4933" lon="1.17853">
        <ele>221</ele>
        <time>2022-03-12T17:38:59Z</time>
      </trkpt>
      <trkpt lat="43.49245" lon="1.17917">
        <ele>221</ele>
        <time>2022-03-12T17:39:16Z</time>
      </trkpt>
      <trkpt lat="43.49217" lon="1.17926">
        <ele>221</ele>
        <time>2022-03-12T17:39:21Z</time>
      </trkpt>
      <trkpt lat="43.49186" lon="1.1794">
        <ele>222</ele>
        <time>2022-03-12T17:39:27Z</time>
      </trkpt>
      <trkpt lat="43.49141" lon="1.18027">
        <ele>223</ele>
        <time>2022-03-12T17:39:41Z</time>
      </trkpt>
      <trkpt lat="43.4913" lon="1.18043">
        <ele>222</ele>
        <time>2022-03-12T17:39:44Z</time>
      </trkpt>
      <trkpt lat="43.49114" lon="1.1805">
        <ele>222</ele>
        <time>2022-03-12T17:39:46Z</time>
      </trkpt>
      <trkpt lat="43.49094" lon="1.18053">
        <ele>222</ele>
        <time>2022-03-12T17:39:50Z</time>
      </trkpt>
      <trkpt lat="43.49068" lon="1.18053">
        <ele>223</ele>
        <time>2022-03-12T17:39:55Z</time>
      </trkpt>
      <trkpt lat="43.48981" lon="1.18081">
        <ele>223</ele>
        <time>2022-03-12T17:40:11Z</time>
      </trkpt>
      <trkpt lat="43.48907" lon="1.1811">
        <ele>224</ele>
        <time>2022-03-12T17:40:24Z</time>
      </trkpt>
      <trkpt lat="43.4878" lon="1.1817">
        <ele>223</ele>
        <time>2022-03-12T17:40:48Z</time>
      </trkpt>
      <trkpt lat="43.48715" lon="1.1819">
        <ele>223</ele>
        <time>2022-03-12T17:41:00Z</time>
      </trkpt>
      <trkpt lat="43.48618" lon="1.18207">
        <ele>220</ele>
        <time>2022-03-12T17:41:17Z</time>
      </trkpt>
      <trkpt lat="43.48594" lon="1.1821">
        <ele>219</ele>
        <time>2022-03-12T17:41:22Z</time>
      </trkpt>
      <trkpt lat="43.48543" lon="1.18203">
        <ele>214</ele>
        <time>2022-03-12T17:41:31Z</time>
      </trkpt>
      <trkpt lat="43.48544" lon="1.18188">
        <ele>214</ele>
        <time>2022-03-12T17:41:33Z</time>
      </trkpt>
      <trkpt lat="43.48573" lon="1.18062">
        <ele>219</ele>
        <time>2022-03-12T17:41:50Z</time>
      </trkpt>
      <trkpt lat="43.48578" lon="1.18035">
        <ele>220</ele>
        <time>2022-03-12T17:41:53Z</time>
      </trkpt>
      <trkpt lat="43.48579" lon="1.17971">
        <ele>221</ele>
        <time>2022-03-12T17:42:02Z</time>
      </trkpt>
      <trkpt lat="43.48583" lon="1.17948">
        <ele>221</ele>
        <time>2022-03-12T17:42:05Z</time>
      </trkpt>
      <trkpt lat="43.48591" lon="1.17915">
        <ele>222</ele>
        <time>2022-03-12T17:42:09Z</time>
      </trkpt>
      <trkpt lat="43.48602" lon="1.17883">
        <ele>223</ele>
        <time>2022-03-12T17:42:14Z</time>
      </trkpt>
      <trkpt lat="43.48612" lon="1.17857">
        <ele>224</ele>
        <time>2022-03-12T17:42:18Z</time>
      </trkpt>
      <trkpt lat="43.48727" lon="1.1769">
        <ele>225</ele>
        <time>2022-03-12T17:42:47Z</time>
      </trkpt>
      <trkpt lat="43.48741" lon="1.17676">
        <ele>226</ele>
        <time>2022-03-12T17:42:50Z</time>
      </trkpt>
      <trkpt lat="43.48773" lon="1.17662">
        <ele>226</ele>
        <time>2022-03-12T17:42:56Z</time>
      </trkpt>
      <trkpt lat="43.48785" lon="1.17646">
        <ele>226</ele>
        <time>2022-03-12T17:42:59Z</time>
      </trkpt>
      <trkpt lat="43.48793" lon="1.17617">
        <ele>226</ele>
        <time>2022-03-12T17:43:03Z</time>
      </trkpt>
      <trkpt lat="43.48803" lon="1.1745">
        <ele>226</ele>
        <time>2022-03-12T17:43:25Z</time>
      </trkpt>
      <trkpt lat="43.48807" lon="1.17412">
        <ele>226</ele>
        <time>2022-03-12T17:43:30Z</time>
      </trkpt>
      <trkpt lat="43.48821" lon="1.17337">
        <ele>223</ele>
        <time>2022-03-12T17:43:40Z</time>
      </trkpt>
      <trkpt lat="43.48825" lon="1.173">
        <ele>223</ele>
        <time>2022-03-12T17:43:45Z</time>
      </trkpt>
      <trkpt lat="43.4883" lon="1.17213">
        <ele>223</ele>
        <time>2022-03-12T17:43:56Z</time>
      </trkpt>
      <trkpt lat="43.48837" lon="1.17184">
        <ele>224</ele>
        <time>2022-03-12T17:44:00Z</time>
      </trkpt>
      <trkpt lat="43.48895" lon="1.17033">
        <ele>225</ele>
        <time>2022-03-12T17:44:22Z</time>
      </trkpt>
      <trkpt lat="43.48906" lon="1.16941">
        <ele>224</ele>
        <time>2022-03-12T17:44:34Z</time>
      </trkpt>
      <trkpt lat="43.48939" lon="1.16775">
        <ele>224</ele>
        <time>2022-03-12T17:44:56Z</time>
      </trkpt>
      <trkpt lat="43.48953" lon="1.16626">
        <ele>226</ele>
        <time>2022-03-12T17:45:16Z</time>
      </trkpt>
      <trkpt lat="43.4896" lon="1.16593">
        <ele>226</ele>
        <time>2022-03-12T17:45:20Z</time>
      </trkpt>
      <trkpt lat="43.48965" lon="1.1658">
        <ele>226</ele>
        <time>2022-03-12T17:45:22Z</time>
      </trkpt>
      <trkpt lat="43.49025" lon="1.16474">
        <ele>224</ele>
        <time>2022-03-12T17:45:39Z</time>
      </trkpt>
      <trkpt lat="43.49028" lon="1.16468">
        <ele>224</ele>
        <time>2022-03-12T17:45:40Z</time>
      </trkpt>
      <trkpt lat="43.49035" lon="1.16455">
        <ele>224</ele>
        <time>2022-03-12T17:45:42Z</time>
      </trkpt>
      <trkpt lat="43.49041" lon="1.16419">
        <ele>224</ele>
        <time>2022-03-12T17:45:47Z</time>
      </trkpt>
      <trkpt lat="43.4908" lon="1.16145">
        <ele>225</ele>
        <time>2022-03-12T17:46:23Z</time>
      </trkpt>
      <trkpt lat="43.49113" lon="1.15984">
        <ele>227</ele>
        <time>2022-03-12T17:46:45Z</time>
      </trkpt>
      <trkpt lat="43.49128" lon="1.15844">
        <ele>226</ele>
        <time>2022-03-12T17:47:03Z</time>
      </trkpt>
      <trkpt lat="43.49131" lon="1.15835">
        <ele>226</ele>
        <time>2022-03-12T17:47:04Z</time>
      </trkpt>
      <trkpt lat="43.49149" lon="1.15806">
        <ele>227</ele>
        <time>2022-03-12T17:47:09Z</time>
      </trkpt>
      <trkpt lat="43.49341" lon="1.15602">
        <ele>227</ele>
        <time>2022-03-12T17:47:52Z</time>
      </trkpt>
      <trkpt lat="43.49358" lon="1.1557">
        <ele>227</ele>
        <time>2022-03-12T17:47:58Z</time>
      </trkpt>
      <trkpt lat="43.49453" lon="1.1535">
        <ele>229</ele>
        <time>2022-03-12T17:48:31Z</time>
      </trkpt>
      <trkpt lat="43.49465" lon="1.15295">
        <ele>230</ele>
        <time>2022-03-12T17:48:38Z</time>
      </trkpt>
      <trkpt lat="43.4948" lon="1.15274">
        <ele>230</ele>
        <time>2022-03-12T17:48:42Z</time>
      </trkpt>
      <trkpt lat="43.49491" lon="1.1527">
        <ele>230</ele>
        <time>2022-03-12T17:48:44Z</time>
      </trkpt>
      <trkpt lat="43.49498" lon="1.15261">
        <ele>230</ele>
        <time>2022-03-12T17:48:46Z</time>
      </trkpt>
      <trkpt lat="43.49501" lon="1.15252">
        <ele>230</ele>
        <time>2022-03-12T17:48:47Z</time>
      </trkpt>
      <trkpt lat="43.49503" lon="1.15241">
        <ele>230</ele>
        <time>2022-03-12T17:48:48Z</time>
      </trkpt>
      <trkpt lat="43.49501" lon="1.15233">
        <ele>230</ele>
        <time>2022-03-12T17:48:49Z</time>
      </trkpt>
      <trkpt lat="43.49497" lon="1.15222">
        <ele>230</ele>
        <time>2022-03-12T17:48:51Z</time>
      </trkpt>
      <trkpt lat="43.49489" lon="1.15215">
        <ele>231</ele>
        <time>2022-03-12T17:48:53Z</time>
      </trkpt>
      <trkpt lat="43.49484" lon="1.15206">
        <ele>231</ele>
        <time>2022-03-12T17:48:54Z</time>
      </trkpt>
      <trkpt lat="43.49469" lon="1.15155">
        <ele>232</ele>
        <time>2022-03-12T17:49:01Z</time>
      </trkpt>
      <trkpt lat="43.4946" lon="1.15108">
        <ele>234</ele>
        <time>2022-03-12T17:49:07Z</time>
      </trkpt>
      <trkpt lat="43.49502" lon="1.15087">
        <ele>234</ele>
        <time>2022-03-12T17:49:15Z</time>
      </trkpt>
      <trkpt lat="43.49628" lon="1.15077">
        <ele>229</ele>
        <time>2022-03-12T17:49:38Z</time>
      </trkpt>
      <trkpt lat="43.49662" lon="1.15081">
        <ele>227</ele>
        <time>2022-03-12T17:49:44Z</time>
      </trkpt>
      <trkpt lat="43.49748" lon="1.15118">
        <ele>225</ele>
        <time>2022-03-12T17:50:00Z</time>
      </trkpt>
      <trkpt lat="43.49827" lon="1.15146">
        <ele>223</ele>
        <time>2022-03-12T17:50:15Z</time>
      </trkpt>
      <trkpt lat="43.49834" lon="1.15146">
        <ele>223</ele>
        <time>2022-03-12T17:50:16Z</time>
      </trkpt>
      <trkpt lat="43.49849" lon="1.15146">
        <ele>223</ele>
        <time>2022-03-12T17:50:18Z</time>
      </trkpt>
      <trkpt lat="43.4987" lon="1.15151">
        <ele>222</ele>
        <time>2022-03-12T17:50:22Z</time>
      </trkpt>
      <trkpt lat="43.49984" lon="1.15139">
        <ele>224</ele>
        <time>2022-03-12T17:50:43Z</time>
      </trkpt>
      <trkpt lat="43.50067" lon="1.15127">
        <ele>227</ele>
        <time>2022-03-12T17:50:57Z</time>
      </trkpt>
      <trkpt lat="43.50057" lon="1.14844">
        <ele>237</ele>
        <time>2022-03-12T17:51:34Z</time>
      </trkpt>
      <trkpt lat="43.50046" lon="1.14779">
        <ele>237</ele>
        <time>2022-03-12T17:51:43Z</time>
      </trkpt>
      <trkpt lat="43.50041" lon="1.14742">
        <ele>237</ele>
        <time>2022-03-12T17:51:47Z</time>
      </trkpt>
      <trkpt lat="43.50032" lon="1.14645">
        <ele>238</ele>
        <time>2022-03-12T17:52:00Z</time>
      </trkpt>
      <trkpt lat="43.50018" lon="1.14546">
        <ele>243</ele>
        <time>2022-03-12T17:52:13Z</time>
      </trkpt>
      <trkpt lat="43.50006" lon="1.14482">
        <ele>243</ele>
        <time>2022-03-12T17:52:22Z</time>
      </trkpt>
      <trkpt lat="43.49981" lon="1.14392">
        <ele>241</ele>
        <time>2022-03-12T17:52:34Z</time>
      </trkpt>
      <trkpt lat="43.49969" lon="1.14326">
        <ele>239</ele>
        <time>2022-03-12T17:52:43Z</time>
      </trkpt>
      <trkpt lat="43.49959" lon="1.14247">
        <ele>239</ele>
        <time>2022-03-12T17:52:53Z</time>
      </trkpt>
      <trkpt lat="43.49953" lon="1.14049">
        <ele>240</ele>
        <time>2022-03-12T17:53:19Z</time>
      </trkpt>
      <trkpt lat="43.49937" lon="1.13897">
        <ele>242</ele>
        <time>2022-03-12T17:53:39Z</time>
      </trkpt>
      <trkpt lat="43.4993" lon="1.13811">
        <ele>245</ele>
        <time>2022-03-12T17:53:50Z</time>
      </trkpt>
      <trkpt lat="43.49921" lon="1.13737">
        <ele>245</ele>
        <time>2022-03-12T17:53:59Z</time>
      </trkpt>
      <trkpt lat="43.4992" lon="1.13722">
        <ele>246</ele>
        <time>2022-03-12T17:54:01Z</time>
      </trkpt>
      <trkpt lat="43.49918" lon="1.13662">
        <ele>249</ele>
        <time>2022-03-12T17:54:09Z</time>
      </trkpt>
      <trkpt lat="43.4992" lon="1.13631">
        <ele>249</ele>
        <time>2022-03-12T17:54:13Z</time>
      </trkpt>
      <trkpt lat="43.49925" lon="1.13605">
        <ele>250</ele>
        <time>2022-03-12T17:54:17Z</time>
      </trkpt>
      <trkpt lat="43.4996" lon="1.13487">
        <ele>257</ele>
        <time>2022-03-12T17:54:33Z</time>
      </trkpt>
      <trkpt lat="43.49975" lon="1.13434">
        <ele>262</ele>
        <time>2022-03-12T17:54:40Z</time>
      </trkpt>
      <trkpt lat="43.49992" lon="1.13345">
        <ele>267</ele>
        <time>2022-03-12T17:54:52Z</time>
      </trkpt>
      <trkpt lat="43.50002" lon="1.13289">
        <ele>268</ele>
        <time>2022-03-12T17:55:00Z</time>
      </trkpt>
      <trkpt lat="43.50008" lon="1.13243">
        <ele>268</ele>
        <time>2022-03-12T17:55:06Z</time>
      </trkpt>
      <trkpt lat="43.50017" lon="1.13118">
        <ele>268</ele>
        <time>2022-03-12T17:55:22Z</time>
      </trkpt>
      <trkpt lat="43.50023" lon="1.13061">
        <ele>267</ele>
        <time>2022-03-12T17:55:29Z</time>
      </trkpt>
      <trkpt lat="43.5003" lon="1.13024">
        <ele>266</ele>
        <time>2022-03-12T17:55:34Z</time>
      </trkpt>
      <trkpt lat="43.5004" lon="1.12994">
        <ele>266</ele>
        <time>2022-03-12T17:55:39Z</time>
      </trkpt>
      <trkpt lat="43.50056" lon="1.12959">
        <ele>267</ele>
        <time>2022-03-12T17:55:44Z</time>
      </trkpt>
      <trkpt lat="43.50131" lon="1.12824">
        <ele>270</ele>
        <time>2022-03-12T17:56:06Z</time>
      </trkpt>
      <trkpt lat="43.50167" lon="1.12765">
        <ele>271</ele>
        <time>2022-03-12T17:56:16Z</time>
      </trkpt>
      <trkpt lat="43.50186" lon="1.12742">
        <ele>271</ele>
        <time>2022-03-12T17:56:20Z</time>
      </trkpt>
      <trkpt lat="43.50303" lon="1.12636">
        <ele>270</ele>
        <time>2022-03-12T17:56:45Z</time>
      </trkpt>
      <trkpt lat="43.50328" lon="1.12601">
        <ele>269</ele>
        <time>2022-03-12T17:56:52Z</time>
      </trkpt>
      <trkpt lat="43.50397" lon="1.12492">
        <ele>269</ele>
        <time>2022-03-12T17:57:10Z</time>
      </trkpt>
      <trkpt lat="43.50418" lon="1.12448">
        <ele>270</ele>
        <time>2022-03-12T17:57:17Z</time>
      </trkpt>
      <trkpt lat="43.50474" lon="1.12278">
        <ele>284</ele>
        <time>2022-03-12T17:57:41Z</time>
      </trkpt>
      <trkpt lat="43.50535" lon="1.12146">
        <ele>296</ele>
        <time>2022-03-12T17:58:01Z</time>
      </trkpt>
      <trkpt lat="43.5056" lon="1.12074">
        <ele>301</ele>
        <time>2022-03-12T17:58:12Z</time>
      </trkpt>
      <trkpt lat="43.50567" lon="1.12042">
        <ele>302</ele>
        <time>2022-03-12T17:58:16Z</time>
      </trkpt>
      <trkpt lat="43.50568" lon="1.12025">
        <ele>303</ele>
        <time>2022-03-12T17:58:18Z</time>
      </trkpt>
      <trkpt lat="43.50561" lon="1.11954">
        <ele>304</ele>
        <time>2022-03-12T17:58:27Z</time>
      </trkpt>
      <trkpt lat="43.50559" lon="1.11917">
        <ele>304</ele>
        <time>2022-03-12T17:58:32Z</time>
      </trkpt>
      <trkpt lat="43.50563" lon="1.11892">
        <ele>305</ele>
        <time>2022-03-12T17:58:36Z</time>
      </trkpt>
      <trkpt lat="43.50576" lon="1.11838">
        <ele>308</ele>
        <time>2022-03-12T17:58:43Z</time>
      </trkpt>
      <trkpt lat="43.50651" lon="1.1163">
        <ele>310</ele>
        <time>2022-03-12T17:59:13Z</time>
      </trkpt>
      <trkpt lat="43.50676" lon="1.11541">
        <ele>313</ele>
        <time>2022-03-12T17:59:25Z</time>
      </trkpt>
      <trkpt lat="43.50692" lon="1.11456">
        <ele>313</ele>
        <time>2022-03-12T17:59:36Z</time>
      </trkpt>
      <trkpt lat="43.50736" lon="1.11129">
        <ele>311</ele>
        <time>2022-03-12T18:00:19Z</time>
      </trkpt>
      <trkpt lat="43.50754" lon="1.11013">
        <ele>310</ele>
        <time>2022-03-12T18:00:35Z</time>
      </trkpt>
      <trkpt lat="43.50768" lon="1.10941">
        <ele>310</ele>
        <time>2022-03-12T18:00:44Z</time>
      </trkpt>
      <trkpt lat="43.50778" lon="1.10899">
        <ele>310</ele>
        <time>2022-03-12T18:00:50Z</time>
      </trkpt>
      <trkpt lat="43.50805" lon="1.10827">
        <ele>310</ele>
        <time>2022-03-12T18:01:01Z</time>
      </trkpt>
      <trkpt lat="43.50893" lon="1.10468">
        <ele>311</ele>
        <time>2022-03-12T18:01:49Z</time>
      </trkpt>
      <trkpt lat="43.50976" lon="1.10239">
        <ele>311</ele>
        <time>2022-03-12T18:02:22Z</time>
      </trkpt>
      <trkpt lat="43.51003" lon="1.10148">
        <ele>312</ele>
        <time>2022-03-12T18:02:35Z</time>
      </trkpt>
      <trkpt lat="43.51016" lon="1.10087">
        <ele>314</ele>
        <time>2022-03-12T18:02:43Z</time>
      </trkpt>
      <trkpt lat="43.51018" lon="1.10037">
        <ele>315</ele>
        <time>2022-03-12T18:02:50Z</time>
      </trkpt>
      <trkpt lat="43.51022" lon="1.09998">
        <ele>315</ele>
        <time>2022-03-12T18:02:55Z</time>
      </trkpt>
      <trkpt lat="43.51032" lon="1.09955">
        <ele>314</ele>
        <time>2022-03-12T18:03:01Z</time>
      </trkpt>
      <trkpt lat="43.51084" lon="1.09754">
        <ele>317</ele>
        <time>2022-03-12T18:03:28Z</time>
      </trkpt>
      <trkpt lat="43.511" lon="1.09701">
        <ele>316</ele>
        <time>2022-03-12T18:03:36Z</time>
      </trkpt>
      <trkpt lat="43.51116" lon="1.09667">
        <ele>315</ele>
        <time>2022-03-12T18:03:41Z</time>
      </trkpt>
      <trkpt lat="43.51122" lon="1.0966">
        <ele>315</ele>
        <time>2022-03-12T18:03:42Z</time>
      </trkpt>
      <trkpt lat="43.51126" lon="1.0966">
        <ele>315</ele>
        <time>2022-03-12T18:03:43Z</time>
      </trkpt>
      <trkpt lat="43.51248" lon="1.09063">
        <ele>314</ele>
        <time>2022-03-12T18:05:03Z</time>
      </trkpt>
      <trkpt lat="43.51288" lon="1.08924">
        <ele>313</ele>
        <time>2022-03-12T18:05:22Z</time>
      </trkpt>
      <trkpt lat="43.51341" lon="1.0878">
        <ele>314</ele>
        <time>2022-03-12T18:05:43Z</time>
      </trkpt>
      <trkpt lat="43.51355" lon="1.08725">
        <ele>316</ele>
        <time>2022-03-12T18:05:51Z</time>
      </trkpt>
      <trkpt lat="43.51362" lon="1.08682">
        <ele>317</ele>
        <time>2022-03-12T18:05:56Z</time>
      </trkpt>
      <trkpt lat="43.51366" lon="1.08598">
        <ele>320</ele>
        <time>2022-03-12T18:06:07Z</time>
      </trkpt>
      <trkpt lat="43.51374" lon="1.0855">
        <ele>320</ele>
        <time>2022-03-12T18:06:14Z</time>
      </trkpt>
      <trkpt lat="43.51433" lon="1.08364">
        <ele>324</ele>
        <time>2022-03-12T18:06:40Z</time>
      </trkpt>
      <trkpt lat="43.51443" lon="1.08357">
        <ele>324</ele>
        <time>2022-03-12T18:06:42Z</time>
      </trkpt>
      <trkpt lat="43.51451" lon="1.08337">
        <ele>324</ele>
        <time>2022-03-12T18:06:45Z</time>
      </trkpt>
      <trkpt lat="43.5146" lon="1.08333">
        <ele>325</ele>
        <time>2022-03-12T18:06:46Z</time>
      </trkpt>
      <trkpt lat="43.51474" lon="1.08319">
        <ele>325</ele>
        <time>2022-03-12T18:06:49Z</time>
      </trkpt>
      <trkpt lat="43.51481" lon="1.08317">
        <ele>325</ele>
        <time>2022-03-12T18:06:51Z</time>
      </trkpt>
      <trkpt lat="43.51509" lon="1.08326">
        <ele>326</ele>
        <time>2022-03-12T18:06:56Z</time>
      </trkpt>
      <trkpt lat="43.51546" lon="1.08346">
        <ele>324</ele>
        <time>2022-03-12T18:07:03Z</time>
      </trkpt>
      <trkpt lat="43.51745" lon="1.08441">
        <ele>319</ele>
        <time>2022-03-12T18:07:40Z</time>
      </trkpt>
      <trkpt lat="43.51763" lon="1.08454">
        <ele>319</ele>
        <time>2022-03-12T18:07:44Z</time>
      </trkpt>
      <trkpt lat="43.51847" lon="1.08556">
        <ele>318</ele>
        <time>2022-03-12T18:08:04Z</time>
      </trkpt>
      <trkpt lat="43.51864" lon="1.08574">
        <ele>318</ele>
        <time>2022-03-12T18:08:08Z</time>
      </trkpt>
      <trkpt lat="43.51915" lon="1.0861">
        <ele>318</ele>
        <time>2022-03-12T18:08:18Z</time>
      </trkpt>
      <trkpt lat="43.52037" lon="1.08656">
        <ele>318</ele>
        <time>2022-03-12T18:08:40Z</time>
      </trkpt>
      <trkpt lat="43.52095" lon="1.08687">
        <ele>319</ele>
        <time>2022-03-12T18:08:52Z</time>
      </trkpt>
      <trkpt lat="43.52212" lon="1.0876">
        <ele>318</ele>
        <time>2022-03-12T18:09:14Z</time>
      </trkpt>
      <trkpt lat="43.52257" lon="1.08776">
        <ele>317</ele>
        <time>2022-03-12T18:09:23Z</time>
      </trkpt>
      <trkpt lat="43.52301" lon="1.08781">
        <ele>315</ele>
        <time>2022-03-12T18:09:30Z</time>
      </trkpt>
      <trkpt lat="43.52666" lon="1.08741">
        <ele>308</ele>
        <time>2022-03-12T18:10:36Z</time>
      </trkpt>
      <trkpt lat="43.52752" lon="1.08744">
        <ele>310</ele>
        <time>2022-03-12T18:10:51Z</time>
      </trkpt>
      <trkpt lat="43.52977" lon="1.08758">
        <ele>312</ele>
        <time>2022-03-12T18:11:31Z</time>
      </trkpt>
      <trkpt lat="43.52987" lon="1.0876">
        <ele>313</ele>
        <time>2022-03-12T18:11:33Z</time>
      </trkpt>
      <trkpt lat="43.53038" lon="1.0878">
        <ele>311</ele>
        <time>2022-03-12T18:11:42Z</time>
      </trkpt>
      <trkpt lat="43.53066" lon="1.08782">
        <ele>309</ele>
        <time>2022-03-12T18:11:47Z</time>
      </trkpt>
      <trkpt lat="43.531" lon="1.08779">
        <ele>307</ele>
        <time>2022-03-12T18:11:53Z</time>
      </trkpt>
      <trkpt lat="43.53135" lon="1.08772">
        <ele>304</ele>
        <time>2022-03-12T18:12:00Z</time>
      </trkpt>
      <trkpt lat="43.53191" lon="1.08753">
        <ele>298</ele>
        <time>2022-03-12T18:12:10Z</time>
      </trkpt>
      <trkpt lat="43.53211" lon="1.08738">
        <ele>296</ele>
        <time>2022-03-12T18:12:14Z</time>
      </trkpt>
      <trkpt lat="43.53247" lon="1.08724">
        <ele>293</ele>
        <time>2022-03-12T18:12:21Z</time>
      </trkpt>
      <trkpt lat="43.53267" lon="1.08729">
        <ele>292</ele>
        <time>2022-03-12T18:12:24Z</time>
      </trkpt>
      <trkpt lat="43.53301" lon="1.08751">
        <ele>292</ele>
        <time>2022-03-12T18:12:31Z</time>
      </trkpt>
      <trkpt lat="43.53321" lon="1.08759">
        <ele>291</ele>
        <time>2022-03-12T18:12:35Z</time>
      </trkpt>
      <trkpt lat="43.53321" lon="1.08764">
        <ele>291</ele>
        <time>2022-03-12T18:12:35Z</time>
      </trkpt>
      <trkpt lat="43.53324" lon="1.08769">
        <ele>291</ele>
        <time>2022-03-12T18:12:36Z</time>
      </trkpt>
      <trkpt lat="43.53329" lon="1.08771">
        <ele>291</ele>
        <time>2022-03-12T18:12:37Z</time>
      </trkpt>
      <trkpt lat="43.53336" lon="1.08769">
        <ele>290</ele>
        <time>2022-03-12T18:12:38Z</time>
      </trkpt>
      <trkpt lat="43.53339" lon="1.08766">
        <ele>290</ele>
        <time>2022-03-12T18:12:39Z</time>
      </trkpt>
      <trkpt lat="43.5335" lon="1.08772">
        <ele>290</ele>
        <time>2022-03-12T18:12:41Z</time>
      </trkpt>
      <trkpt lat="43.53381" lon="1.08798">
        <ele>290</ele>
        <time>2022-03-12T18:12:47Z</time>
      </trkpt>
      <trkpt lat="43.53405" lon="1.08834">
        <ele>292</ele>
        <time>2022-03-12T18:12:54Z</time>
      </trkpt>
      <trkpt lat="43.53478" lon="1.08953">
        <ele>290</ele>
        <time>2022-03-12T18:13:14Z</time>
      </trkpt>
      <trkpt lat="43.53531" lon="1.09081">
        <ele>291</ele>
        <time>2022-03-12T18:13:33Z</time>
      </trkpt>
      <trkpt lat="43.53596" lon="1.09248">
        <ele>285</ele>
        <time>2022-03-12T18:13:57Z</time>
      </trkpt>
      <trkpt lat="43.53625" lon="1.09309">
        <ele>284</ele>
        <time>2022-03-12T18:14:07Z</time>
      </trkpt>
      <trkpt lat="43.53651" lon="1.09351">
        <ele>286</ele>
        <time>2022-03-12T18:14:14Z</time>
      </trkpt>
      <trkpt lat="43.53741" lon="1.09483">
        <ele>283</ele>
        <time>2022-03-12T18:14:37Z</time>
      </trkpt>
      <trkpt lat="43.53823" lon="1.09595">
        <ele>287</ele>
        <time>2022-03-12T18:14:58Z</time>
      </trkpt>
      <trkpt lat="43.53854" lon="1.09621">
        <ele>284</ele>
        <time>2022-03-12T18:15:04Z</time>
      </trkpt>
      <trkpt lat="43.5402" lon="1.09688">
        <ele>274</ele>
        <time>2022-03-12T18:15:35Z</time>
      </trkpt>
      <trkpt lat="43.54053" lon="1.09695">
        <ele>273</ele>
        <time>2022-03-12T18:15:41Z</time>
      </trkpt>
      <trkpt lat="43.54548" lon="1.09741">
        <ele>259</ele>
        <time>2022-03-12T18:17:09Z</time>
      </trkpt>
      <trkpt lat="43.54586" lon="1.09742">
        <ele>260</ele>
        <time>2022-03-12T18:17:16Z</time>
      </trkpt>
      <trkpt lat="43.54618" lon="1.09737">
        <ele>260</ele>
        <time>2022-03-12T18:17:22Z</time>
      </trkpt>
      <trkpt lat="43.54648" lon="1.09725">
        <ele>260</ele>
        <time>2022-03-12T18:17:27Z</time>
      </trkpt>
      <trkpt lat="43.54778" lon="1.09635">
        <ele>253</ele>
        <time>2022-03-12T18:17:53Z</time>
      </trkpt>
      <trkpt lat="43.54807" lon="1.09617">
        <ele>252</ele>
        <time>2022-03-12T18:17:59Z</time>
      </trkpt>
      <trkpt lat="43.54836" lon="1.09606">
        <ele>252</ele>
        <time>2022-03-12T18:18:04Z</time>
      </trkpt>
      <trkpt lat="43.54956" lon="1.09584">
        <ele>249</ele>
        <time>2022-03-12T18:18:26Z</time>
      </trkpt>
      <trkpt lat="43.54979" lon="1.09578">
        <ele>248</ele>
        <time>2022-03-12T18:18:30Z</time>
      </trkpt>
      <trkpt lat="43.54998" lon="1.09567">
        <ele>247</ele>
        <time>2022-03-12T18:18:34Z</time>
      </trkpt>
      <trkpt lat="43.5516" lon="1.09422">
        <ele>251</ele>
        <time>2022-03-12T18:19:08Z</time>
      </trkpt>
      <trkpt lat="43.55396" lon="1.09244">
        <ele>249</ele>
        <time>2022-03-12T18:19:56Z</time>
      </trkpt>
      <trkpt lat="43.55443" lon="1.09213">
        <ele>249</ele>
        <time>2022-03-12T18:20:05Z</time>
      </trkpt>
      <trkpt lat="43.55716" lon="1.09078">
        <ele>257</ele>
        <time>2022-03-12T18:20:57Z</time>
      </trkpt>
      <trkpt lat="43.55605" lon="1.09386">
        <ele>251</ele>
        <time>2022-03-12T18:21:41Z</time>
      </trkpt>
      <trkpt lat="43.55467" lon="1.09761">
        <ele>250</ele>
        <time>2022-03-12T18:22:35Z</time>
      </trkpt>
      <trkpt lat="43.55377" lon="1.09947">
        <ele>248</ele>
        <time>2022-03-12T18:23:04Z</time>
      </trkpt>
      <trkpt lat="43.55245" lon="1.10348">
        <ele>244</ele>
        <time>2022-03-12T18:24:01Z</time>
      </trkpt>
      <trkpt lat="43.55203" lon="1.10515">
        <ele>243</ele>
        <time>2022-03-12T18:24:24Z</time>
      </trkpt>
      <trkpt lat="43.55195" lon="1.10536">
        <ele>242</ele>
        <time>2022-03-12T18:24:27Z</time>
      </trkpt>
      <trkpt lat="43.55165" lon="1.10592">
        <ele>241</ele>
        <time>2022-03-12T18:24:36Z</time>
      </trkpt>
      <trkpt lat="43.55154" lon="1.10617">
        <ele>242</ele>
        <time>2022-03-12T18:24:39Z</time>
      </trkpt>
      <trkpt lat="43.55132" lon="1.10716">
        <ele>242</ele>
        <time>2022-03-12T18:24:53Z</time>
      </trkpt>
      <trkpt lat="43.55102" lon="1.1106">
        <ele>242</ele>
        <time>2022-03-12T18:25:37Z</time>
      </trkpt>
      <trkpt lat="43.55104" lon="1.11096">
        <ele>243</ele>
        <time>2022-03-12T18:25:42Z</time>
      </trkpt>
      <trkpt lat="43.55119" lon="1.11209">
        <ele>242</ele>
        <time>2022-03-12T18:25:57Z</time>
      </trkpt>
      <trkpt lat="43.55171" lon="1.11686">
        <ele>239</ele>
        <time>2022-03-12T18:26:59Z</time>
      </trkpt>
      <trkpt lat="43.55189" lon="1.11959">
        <ele>241</ele>
        <time>2022-03-12T18:27:35Z</time>
      </trkpt>
      <trkpt lat="43.55191" lon="1.12027">
        <ele>242</ele>
        <time>2022-03-12T18:27:43Z</time>
      </trkpt>
      <trkpt lat="43.55191" lon="1.12047">
        <ele>243</ele>
        <time>2022-03-12T18:27:46Z</time>
      </trkpt>
      <trkpt lat="43.55167" lon="1.12219">
        <ele>240</ele>
        <time>2022-03-12T18:28:08Z</time>
      </trkpt>
      <trkpt lat="43.55151" lon="1.12355">
        <ele>243</ele>
        <time>2022-03-12T18:28:26Z</time>
      </trkpt>
      <trkpt lat="43.55124" lon="1.12558">
        <ele>241</ele>
        <time>2022-03-12T18:28:53Z</time>
      </trkpt>
      <trkpt lat="43.55121" lon="1.1262">
        <ele>241</ele>
        <time>2022-03-12T18:29:01Z</time>
      </trkpt>
      <trkpt lat="43.55121" lon="1.12959">
        <ele>239</ele>
        <time>2022-03-12T18:29:45Z</time>
      </trkpt>
      <trkpt lat="43.55117" lon="1.1305">
        <ele>239</ele>
        <time>2022-03-12T18:29:56Z</time>
      </trkpt>
      <trkpt lat="43.55099" lon="1.13319">
        <ele>241</ele>
        <time>2022-03-12T18:30:31Z</time>
      </trkpt>
      <trkpt lat="43.55111" lon="1.13529">
        <ele>237</ele>
        <time>2022-03-12T18:30:58Z</time>
      </trkpt>
      <trkpt lat="43.55107" lon="1.13772">
        <ele>235</ele>
        <time>2022-03-12T18:31:30Z</time>
      </trkpt>
      <trkpt lat="43.5512" lon="1.13897">
        <ele>233</ele>
        <time>2022-03-12T18:31:46Z</time>
      </trkpt>
      <trkpt lat="43.55131" lon="1.14058">
        <ele>235</ele>
        <time>2022-03-12T18:32:07Z</time>
      </trkpt>
      <trkpt lat="43.55157" lon="1.1432">
        <ele>231</ele>
        <time>2022-03-12T18:32:41Z</time>
      </trkpt>
      <trkpt lat="43.5516" lon="1.14394">
        <ele>231</ele>
        <time>2022-03-12T18:32:50Z</time>
      </trkpt>
      <trkpt lat="43.55162" lon="1.14413">
        <ele>231</ele>
        <time>2022-03-12T18:32:53Z</time>
      </trkpt>
      <trkpt lat="43.55169" lon="1.14424">
        <ele>231</ele>
        <time>2022-03-12T18:32:55Z</time>
      </trkpt>
      <trkpt lat="43.55176" lon="1.14431">
        <ele>231</ele>
        <time>2022-03-12T18:32:56Z</time>
      </trkpt>
      <trkpt lat="43.55544" lon="1.13786">
        <ele>271</ele>
        <time>2022-03-12T18:34:42Z</time>
      </trkpt>
      <trkpt lat="43.55626" lon="1.13657">
        <ele>273</ele>
        <time>2022-03-12T18:35:04Z</time>
      </trkpt>
      <trkpt lat="43.55859" lon="1.13239">
        <ele>256</ele>
        <time>2022-03-12T18:36:12Z</time>
      </trkpt>
      <trkpt lat="43.55864" lon="1.1323">
        <ele>256</ele>
        <time>2022-03-12T18:36:14Z</time>
      </trkpt>
      <trkpt lat="43.56111" lon="1.1283">
        <ele>273</ele>
        <time>2022-03-12T18:37:22Z</time>
      </trkpt>
      <trkpt lat="43.56123" lon="1.12812">
        <ele>275</ele>
        <time>2022-03-12T18:37:25Z</time>
      </trkpt>
      <trkpt lat="43.5614" lon="1.128">
        <ele>277</ele>
        <time>2022-03-12T18:37:28Z</time>
      </trkpt>
      <trkpt lat="43.56162" lon="1.12794">
        <ele>279</ele>
        <time>2022-03-12T18:37:32Z</time>
      </trkpt>
      <trkpt lat="43.56349" lon="1.12793">
        <ele>281</ele>
        <time>2022-03-12T18:38:05Z</time>
      </trkpt>
      <trkpt lat="43.5637" lon="1.12796">
        <ele>279</ele>
        <time>2022-03-12T18:38:09Z</time>
      </trkpt>
      <trkpt lat="43.56389" lon="1.12803">
        <ele>278</ele>
        <time>2022-03-12T18:38:13Z</time>
      </trkpt>
      <trkpt lat="43.5655" lon="1.12913">
        <ele>256</ele>
        <time>2022-03-12T18:38:45Z</time>
      </trkpt>
      <trkpt lat="43.56598" lon="1.12954">
        <ele>252</ele>
        <time>2022-03-12T18:38:55Z</time>
      </trkpt>
      <trkpt lat="43.56619" lon="1.12986">
        <ele>251</ele>
        <time>2022-03-12T18:39:00Z</time>
      </trkpt>
      <trkpt lat="43.56706" lon="1.13169">
        <ele>241</ele>
        <time>2022-03-12T18:39:28Z</time>
      </trkpt>
      <trkpt lat="43.56742" lon="1.13241">
        <ele>239</ele>
        <time>2022-03-12T18:39:40Z</time>
      </trkpt>
      <trkpt lat="43.56759" lon="1.13263">
        <ele>238</ele>
        <time>2022-03-12T18:39:44Z</time>
      </trkpt>
      <trkpt lat="43.56776" lon="1.13276">
        <ele>238</ele>
        <time>2022-03-12T18:39:47Z</time>
      </trkpt>
      <trkpt lat="43.56788" lon="1.13281">
        <ele>238</ele>
        <time>2022-03-12T18:39:50Z</time>
      </trkpt>
      <trkpt lat="43.5685" lon="1.13303">
        <ele>237</ele>
        <time>2022-03-12T18:40:01Z</time>
      </trkpt>
      <trkpt lat="43.56863" lon="1.13304">
        <ele>238</ele>
        <time>2022-03-12T18:40:03Z</time>
      </trkpt>
      <trkpt lat="43.56877" lon="1.133">
        <ele>239</ele>
        <time>2022-03-12T18:40:06Z</time>
      </trkpt>
      <trkpt lat="43.5689" lon="1.13294">
        <ele>240</ele>
        <time>2022-03-12T18:40:08Z</time>
      </trkpt>
      <trkpt lat="43.56903" lon="1.1328">
        <ele>241</ele>
        <time>2022-03-12T18:40:11Z</time>
      </trkpt>
      <trkpt lat="43.56916" lon="1.13259">
        <ele>243</ele>
        <time>2022-03-12T18:40:15Z</time>
      </trkpt>
      <trkpt lat="43.57032" lon="1.13052">
        <ele>259</ele>
        <time>2022-03-12T18:40:48Z</time>
      </trkpt>
      <trkpt lat="43.57049" lon="1.13011">
        <ele>261</ele>
        <time>2022-03-12T18:40:55Z</time>
      </trkpt>
      <trkpt lat="43.57068" lon="1.12959">
        <ele>263</ele>
        <time>2022-03-12T18:41:02Z</time>
      </trkpt>
      <trkpt lat="43.57082" lon="1.1293">
        <ele>264</ele>
        <time>2022-03-12T18:41:07Z</time>
      </trkpt>
      <trkpt lat="43.57092" lon="1.12915">
        <ele>264</ele>
        <time>2022-03-12T18:41:09Z</time>
      </trkpt>
      <trkpt lat="43.57112" lon="1.12895">
        <ele>264</ele>
        <time>2022-03-12T18:41:14Z</time>
      </trkpt>
      <trkpt lat="43.57141" lon="1.1288">
        <ele>266</ele>
        <time>2022-03-12T18:41:19Z</time>
      </trkpt>
      <trkpt lat="43.57191" lon="1.12867">
        <ele>269</ele>
        <time>2022-03-12T18:41:28Z</time>
      </trkpt>
      <trkpt lat="43.57221" lon="1.12866">
        <ele>272</ele>
        <time>2022-03-12T18:41:33Z</time>
      </trkpt>
      <trkpt lat="43.57477" lon="1.12873">
        <ele>287</ele>
        <time>2022-03-12T18:42:19Z</time>
      </trkpt>
      <trkpt lat="43.57635" lon="1.12899">
        <ele>293</ele>
        <time>2022-03-12T18:42:47Z</time>
      </trkpt>
      <trkpt lat="43.57652" lon="1.12907">
        <ele>293</ele>
        <time>2022-03-12T18:42:51Z</time>
      </trkpt>
      <trkpt lat="43.57669" lon="1.12925">
        <ele>294</ele>
        <time>2022-03-12T18:42:54Z</time>
      </trkpt>
      <trkpt lat="43.57681" lon="1.12944">
        <ele>295</ele>
        <time>2022-03-12T18:42:58Z</time>
      </trkpt>
      <trkpt lat="43.57721" lon="1.1304">
        <ele>297</ele>
        <time>2022-03-12T18:43:12Z</time>
      </trkpt>
      <trkpt lat="43.57742" lon="1.13085">
        <ele>297</ele>
        <time>2022-03-12T18:43:19Z</time>
      </trkpt>
      <trkpt lat="43.5776" lon="1.13105">
        <ele>298</ele>
        <time>2022-03-12T18:43:23Z</time>
      </trkpt>
      <trkpt lat="43.57779" lon="1.1312">
        <ele>298</ele>
        <time>2022-03-12T18:43:27Z</time>
      </trkpt>
      <trkpt lat="43.57808" lon="1.13129">
        <ele>299</ele>
        <time>2022-03-12T18:43:32Z</time>
      </trkpt>
      <trkpt lat="43.57887" lon="1.13148">
        <ele>299</ele>
        <time>2022-03-12T18:43:46Z</time>
      </trkpt>
      <trkpt lat="43.57913" lon="1.1316">
        <ele>300</ele>
        <time>2022-03-12T18:43:51Z</time>
      </trkpt>
      <trkpt lat="43.58058" lon="1.13243">
        <ele>302</ele>
        <time>2022-03-12T18:44:19Z</time>
      </trkpt>
      <trkpt lat="43.58075" lon="1.13257">
        <ele>302</ele>
        <time>2022-03-12T18:44:23Z</time>
      </trkpt>
      <trkpt lat="43.58092" lon="1.13277">
        <ele>303</ele>
        <time>2022-03-12T18:44:27Z</time>
      </trkpt>
      <trkpt lat="43.58099" lon="1.13292">
        <ele>303</ele>
        <time>2022-03-12T18:44:29Z</time>
      </trkpt>
      <trkpt lat="43.58103" lon="1.13308">
        <ele>303</ele>
        <time>2022-03-12T18:44:31Z</time>
      </trkpt>
      <trkpt lat="43.58106" lon="1.13329">
        <ele>303</ele>
        <time>2022-03-12T18:44:34Z</time>
      </trkpt>
      <trkpt lat="43.58105" lon="1.13357">
        <ele>304</ele>
        <time>2022-03-12T18:44:37Z</time>
      </trkpt>
      <trkpt lat="43.58092" lon="1.13467">
        <ele>305</ele>
        <time>2022-03-12T18:44:52Z</time>
      </trkpt>
      <trkpt lat="43.5809" lon="1.13502">
        <ele>305</ele>
        <time>2022-03-12T18:44:56Z</time>
      </trkpt>
      <trkpt lat="43.58092" lon="1.13575">
        <ele>303</ele>
        <time>2022-03-12T18:45:06Z</time>
      </trkpt>
      <trkpt lat="43.58098" lon="1.1362">
        <ele>303</ele>
        <time>2022-03-12T18:45:12Z</time>
      </trkpt>
      <trkpt lat="43.58133" lon="1.13812">
        <ele>302</ele>
        <time>2022-03-12T18:45:37Z</time>
      </trkpt>
      <trkpt lat="43.58167" lon="1.13972">
        <ele>305</ele>
        <time>2022-03-12T18:45:59Z</time>
      </trkpt>
      <trkpt lat="43.58175" lon="1.14018">
        <ele>305</ele>
        <time>2022-03-12T18:46:05Z</time>
      </trkpt>
      <trkpt lat="43.58182" lon="1.14094">
        <ele>305</ele>
        <time>2022-03-12T18:46:15Z</time>
      </trkpt>
      <trkpt lat="43.58188" lon="1.14139">
        <ele>305</ele>
        <time>2022-03-12T18:46:21Z</time>
      </trkpt>
      <trkpt lat="43.58196" lon="1.14162">
        <ele>305</ele>
        <time>2022-03-12T18:46:24Z</time>
      </trkpt>
      <trkpt lat="43.58206" lon="1.14177">
        <ele>305</ele>
        <time>2022-03-12T18:46:26Z</time>
      </trkpt>
      <trkpt lat="43.58236" lon="1.14197">
        <ele>306</ele>
        <time>2022-03-12T18:46:32Z</time>
      </trkpt>
      <trkpt lat="43.58241" lon="1.14205">
        <ele>306</ele>
        <time>2022-03-12T18:46:34Z</time>
      </trkpt>
      <trkpt lat="43.58249" lon="1.14207">
        <ele>306</ele>
        <time>2022-03-12T18:46:35Z</time>
      </trkpt>
      <trkpt lat="43.58256" lon="1.14201">
        <ele>306</ele>
        <time>2022-03-12T18:46:37Z</time>
      </trkpt>
      <trkpt lat="43.58278" lon="1.1419">
        <ele>306</ele>
        <time>2022-03-12T18:46:41Z</time>
      </trkpt>
      <trkpt lat="43.58296" lon="1.1419">
        <ele>305</ele>
        <time>2022-03-12T18:46:44Z</time>
      </trkpt>
      <trkpt lat="43.58343" lon="1.14192">
        <ele>305</ele>
        <time>2022-03-12T18:46:52Z</time>
      </trkpt>
      <trkpt lat="43.58384" lon="1.14193">
        <ele>304</ele>
        <time>2022-03-12T18:47:00Z</time>
      </trkpt>
      <trkpt lat="43.58384" lon="1.14199">
        <ele>304</ele>
        <time>2022-03-12T18:47:01Z</time>
      </trkpt>
      <trkpt lat="43.58389" lon="1.14209">
        <ele>304</ele>
        <time>2022-03-12T18:47:02Z</time>
      </trkpt>
      <trkpt lat="43.58392" lon="1.14212">
        <ele>304</ele>
        <time>2022-03-12T18:47:03Z</time>
      </trkpt>
      <trkpt lat="43.58401" lon="1.14212">
        <ele>304</ele>
        <time>2022-03-12T18:47:04Z</time>
      </trkpt>
      <trkpt lat="43.58407" lon="1.14206">
        <ele>304</ele>
        <time>2022-03-12T18:47:06Z</time>
      </trkpt>
      <trkpt lat="43.58424" lon="1.14197">
        <ele>304</ele>
        <time>2022-03-12T18:47:09Z</time>
      </trkpt>
      <trkpt lat="43.58436" lon="1.142">
        <ele>304</ele>
        <time>2022-03-12T18:47:11Z</time>
      </trkpt>
      <trkpt lat="43.58448" lon="1.14207">
        <ele>303</ele>
        <time>2022-03-12T18:47:13Z</time>
      </trkpt>
      <trkpt lat="43.5853" lon="1.14287">
        <ele>301</ele>
        <time>2022-03-12T18:47:31Z</time>
      </trkpt>
      <trkpt lat="43.58558" lon="1.14308">
        <ele>302</ele>
        <time>2022-03-12T18:47:37Z</time>
      </trkpt>
      <trkpt lat="43.58874" lon="1.14486">
        <ele>299</ele>
        <time>2022-03-12T18:48:38Z</time>
      </trkpt>
      <trkpt lat="43.58895" lon="1.14498">
        <ele>301</ele>
        <time>2022-03-12T18:48:42Z</time>
      </trkpt>
      <trkpt lat="43.58921" lon="1.14523">
        <ele>301</ele>
        <time>2022-03-12T18:48:47Z</time>
      </trkpt>
      <trkpt lat="43.58953" lon="1.14572">
        <ele>300</ele>
        <time>2022-03-12T18:48:56Z</time>
      </trkpt>
      <trkpt lat="43.59086" lon="1.14888">
        <ele>301</ele>
        <time>2022-03-12T18:49:43Z</time>
      </trkpt>
      <trkpt lat="43.59091" lon="1.14909">
        <ele>301</ele>
        <time>2022-03-12T18:49:46Z</time>
      </trkpt>
      <trkpt lat="43.59094" lon="1.14915">
        <ele>301</ele>
        <time>2022-03-12T18:49:47Z</time>
      </trkpt>
      <trkpt lat="43.59117" lon="1.1493">
        <ele>302</ele>
        <time>2022-03-12T18:49:51Z</time>
      </trkpt>
      <trkpt lat="43.5915" lon="1.14943">
        <ele>302</ele>
        <time>2022-03-12T18:49:57Z</time>
      </trkpt>
      <trkpt lat="43.5916" lon="1.14921">
        <ele>303</ele>
        <time>2022-03-12T18:50:01Z</time>
      </trkpt>
      <trkpt lat="43.59171" lon="1.14885">
        <ele>303</ele>
        <time>2022-03-12T18:50:06Z</time>
      </trkpt>
      <trkpt lat="43.59182" lon="1.14878">
        <ele>303</ele>
        <time>2022-03-12T18:50:08Z</time>
      </trkpt>
      <trkpt lat="43.592" lon="1.14879">
        <ele>302</ele>
        <time>2022-03-12T18:50:11Z</time>
      </trkpt>
      <trkpt lat="43.59283" lon="1.14924">
        <ele>301</ele>
        <time>2022-03-12T18:50:27Z</time>
      </trkpt>
      <trkpt lat="43.59389" lon="1.1501">
        <ele>300</ele>
        <time>2022-03-12T18:50:49Z</time>
      </trkpt>
      <trkpt lat="43.59421" lon="1.15033">
        <ele>300</ele>
        <time>2022-03-12T18:50:55Z</time>
      </trkpt>
      <trkpt lat="43.59568" lon="1.15092">
        <ele>296</ele>
        <time>2022-03-12T18:51:22Z</time>
      </trkpt>
      <trkpt lat="43.59597" lon="1.15093">
        <ele>296</ele>
        <time>2022-03-12T18:51:28Z</time>
      </trkpt>
      <trkpt lat="43.59626" lon="1.15082">
        <ele>298</ele>
        <time>2022-03-12T18:51:33Z</time>
      </trkpt>
      <trkpt lat="43.59657" lon="1.15066">
        <ele>298</ele>
        <time>2022-03-12T18:51:39Z</time>
      </trkpt>
      <trkpt lat="43.59685" lon="1.15062">
        <ele>298</ele>
        <time>2022-03-12T18:51:44Z</time>
      </trkpt>
      <trkpt lat="43.59715" lon="1.15065">
        <ele>297</ele>
        <time>2022-03-12T18:51:49Z</time>
      </trkpt>
      <trkpt lat="43.59804" lon="1.15098">
        <ele>294</ele>
        <time>2022-03-12T18:52:06Z</time>
      </trkpt>
      <trkpt lat="43.59873" lon="1.1512">
        <ele>291</ele>
        <time>2022-03-12T18:52:18Z</time>
      </trkpt>
      <trkpt lat="43.59904" lon="1.15114">
        <ele>290</ele>
        <time>2022-03-12T18:52:24Z</time>
      </trkpt>
      <trkpt lat="43.59989" lon="1.15091">
        <ele>290</ele>
        <time>2022-03-12T18:52:39Z</time>
      </trkpt>
      <trkpt lat="43.60043" lon="1.15097">
        <ele>292</ele>
        <time>2022-03-12T18:52:49Z</time>
      </trkpt>
      <trkpt lat="43.60084" lon="1.15124">
        <ele>294</ele>
        <time>2022-03-12T18:52:57Z</time>
      </trkpt>
      <trkpt lat="43.60105" lon="1.15151">
        <ele>293</ele>
        <time>2022-03-12T18:53:02Z</time>
      </trkpt>
      <trkpt lat="43.60124" lon="1.15188">
        <ele>292</ele>
        <time>2022-03-12T18:53:08Z</time>
      </trkpt>
      <trkpt lat="43.60165" lon="1.15318">
        <ele>292</ele>
        <time>2022-03-12T18:53:26Z</time>
      </trkpt>
      <trkpt lat="43.60196" lon="1.15383">
        <ele>291</ele>
        <time>2022-03-12T18:53:36Z</time>
      </trkpt>
      <trkpt lat="43.60314" lon="1.15477">
        <ele>295</ele>
        <time>2022-03-12T18:54:00Z</time>
      </trkpt>
      <trkpt lat="43.60333" lon="1.15502">
        <ele>296</ele>
        <time>2022-03-12T18:54:05Z</time>
      </trkpt>
      <trkpt lat="43.60398" lon="1.15612">
        <ele>290</ele>
        <time>2022-03-12T18:54:23Z</time>
      </trkpt>
      <trkpt lat="43.6054" lon="1.15886">
        <ele>286</ele>
        <time>2022-03-12T18:55:07Z</time>
      </trkpt>
      <trkpt lat="43.60547" lon="1.15898">
        <ele>286</ele>
        <time>2022-03-12T18:55:09Z</time>
      </trkpt>
      <trkpt lat="43.60568" lon="1.15918">
        <ele>287</ele>
        <time>2022-03-12T18:55:13Z</time>
      </trkpt>
      <trkpt lat="43.60624" lon="1.15954">
        <ele>288</ele>
        <time>2022-03-12T18:55:24Z</time>
      </trkpt>
      <trkpt lat="43.60643" lon="1.15963">
        <ele>289</ele>
        <time>2022-03-12T18:55:28Z</time>
      </trkpt>
      <trkpt lat="43.60744" lon="1.16005">
        <ele>288</ele>
        <time>2022-03-12T18:55:47Z</time>
      </trkpt>
      <trkpt lat="43.60805" lon="1.16037">
        <ele>286</ele>
        <time>2022-03-12T18:55:58Z</time>
      </trkpt>
      <trkpt lat="43.60843" lon="1.16082">
        <ele>285</ele>
        <time>2022-03-12T18:56:07Z</time>
      </trkpt>
      <trkpt lat="43.60868" lon="1.16117">
        <ele>283</ele>
        <time>2022-03-12T18:56:14Z</time>
      </trkpt>
      <trkpt lat="43.61161" lon="1.16585">
        <ele>275</ele>
        <time>2022-03-12T18:57:33Z</time>
      </trkpt>
      <trkpt lat="43.61183" lon="1.16616">
        <ele>275</ele>
        <time>2022-03-12T18:57:39Z</time>
      </trkpt>
      <trkpt lat="43.61197" lon="1.1663">
        <ele>275</ele>
        <time>2022-03-12T18:57:42Z</time>
      </trkpt>
      <trkpt lat="43.61339" lon="1.16742">
        <ele>281</ele>
        <time>2022-03-12T18:58:11Z</time>
      </trkpt>
      <trkpt lat="43.61367" lon="1.16768">
        <ele>282</ele>
        <time>2022-03-12T18:58:17Z</time>
      </trkpt>
      <trkpt lat="43.61395" lon="1.16809">
        <ele>282</ele>
        <time>2022-03-12T18:58:24Z</time>
      </trkpt>
      <trkpt lat="43.61421" lon="1.16859">
        <ele>282</ele>
        <time>2022-03-12T18:58:32Z</time>
      </trkpt>
      <trkpt lat="43.61437" lon="1.16895">
        <ele>282</ele>
        <time>2022-03-12T18:58:38Z</time>
      </trkpt>
      <trkpt lat="43.61457" lon="1.16929">
        <ele>281</ele>
        <time>2022-03-12T18:58:43Z</time>
      </trkpt>
      <trkpt lat="43.6149" lon="1.16973">
        <ele>279</ele>
        <time>2022-03-12T18:58:51Z</time>
      </trkpt>
      <trkpt lat="43.61553" lon="1.17051">
        <ele>277</ele>
        <time>2022-03-12T18:59:06Z</time>
      </trkpt>
      <trkpt lat="43.61577" lon="1.17073">
        <ele>276</ele>
        <time>2022-03-12T18:59:12Z</time>
      </trkpt>
      <trkpt lat="43.6163" lon="1.17106">
        <ele>273</ele>
        <time>2022-03-12T18:59:22Z</time>
      </trkpt>
      <trkpt lat="43.61675" lon="1.1713">
        <ele>271</ele>
        <time>2022-03-12T18:59:31Z</time>
      </trkpt>
      <trkpt lat="43.61726" lon="1.17155">
        <ele>269</ele>
        <time>2022-03-12T18:59:40Z</time>
      </trkpt>
      <trkpt lat="43.61754" lon="1.17178">
        <ele>268</ele>
        <time>2022-03-12T18:59:46Z</time>
      </trkpt>
      <trkpt lat="43.61856" lon="1.17304">
        <ele>266</ele>
        <time>2022-03-12T19:00:10Z</time>
      </trkpt>
      <trkpt lat="43.61899" lon="1.17369">
        <ele>266</ele>
        <time>2022-03-12T19:00:22Z</time>
      </trkpt>
      <trkpt lat="43.61948" lon="1.17433">
        <ele>264</ele>
        <time>2022-03-12T19:00:34Z</time>
      </trkpt>
      <trkpt lat="43.62067" lon="1.17568">
        <ele>263</ele>
        <time>2022-03-12T19:01:01Z</time>
      </trkpt>
      <trkpt lat="43.6207" lon="1.17569">
        <ele>263</ele>
        <time>2022-03-12T19:01:02Z</time>
      </trkpt>
      <trkpt lat="43.62032" lon="1.1784">
        <ele>265</ele>
        <time>2022-03-12T19:01:37Z</time>
      </trkpt>
      <trkpt lat="43.6203" lon="1.17891">
        <ele>267</ele>
        <time>2022-03-12T19:01:44Z</time>
      </trkpt>
      <trkpt lat="43.62029" lon="1.18165">
        <ele>262</ele>
        <time>2022-03-12T19:02:19Z</time>
      </trkpt>
      <trkpt lat="43.6203" lon="1.18185">
        <ele>261</ele>
        <time>2022-03-12T19:02:22Z</time>
      </trkpt>
      <trkpt lat="43.6204" lon="1.18276">
        <ele>257</ele>
        <time>2022-03-12T19:02:33Z</time>
      </trkpt>
      <trkpt lat="43.62042" lon="1.18304">
        <ele>256</ele>
        <time>2022-03-12T19:02:37Z</time>
      </trkpt>
      <trkpt lat="43.62044" lon="1.18472">
        <ele>254</ele>
        <time>2022-03-12T19:02:59Z</time>
      </trkpt>
      <trkpt lat="43.62043" lon="1.18536">
        <ele>251</ele>
        <time>2022-03-12T19:03:07Z</time>
      </trkpt>
      <trkpt lat="43.62041" lon="1.18566">
        <ele>249</ele>
        <time>2022-03-12T19:03:11Z</time>
      </trkpt>
      <trkpt lat="43.62028" lon="1.18739">
        <ele>246</ele>
        <time>2022-03-12T19:03:33Z</time>
      </trkpt>
      <trkpt lat="43.62025" lon="1.18759">
        <ele>245</ele>
        <time>2022-03-12T19:03:36Z</time>
      </trkpt>
      <trkpt lat="43.62022" lon="1.18776">
        <ele>245</ele>
        <time>2022-03-12T19:03:38Z</time>
      </trkpt>
      <trkpt lat="43.61972" lon="1.1895">
        <ele>242</ele>
        <time>2022-03-12T19:04:02Z</time>
      </trkpt>
      <trkpt lat="43.61968" lon="1.1899">
        <ele>242</ele>
        <time>2022-03-12T19:04:07Z</time>
      </trkpt>
      <trkpt lat="43.61971" lon="1.18995">
        <ele>243</ele>
        <time>2022-03-12T19:04:08Z</time>
      </trkpt>
      <trkpt lat="43.61952" lon="1.19013">
        <ele>242</ele>
        <time>2022-03-12T19:04:12Z</time>
      </trkpt>
      <trkpt lat="43.61942" lon="1.1903">
        <ele>242</ele>
        <time>2022-03-12T19:04:15Z</time>
      </trkpt>
      <trkpt lat="43.61931" lon="1.19053">
        <ele>241</ele>
        <time>2022-03-12T19:04:19Z</time>
      </trkpt>
      <trkpt lat="43.61894" lon="1.19153">
        <ele>242</ele>
        <time>2022-03-12T19:04:33Z</time>
      </trkpt>
      <trkpt lat="43.61886" lon="1.1917">
        <ele>241</ele>
        <time>2022-03-12T19:04:36Z</time>
      </trkpt>
      <trkpt lat="43.61747" lon="1.19375">
        <ele>234</ele>
        <time>2022-03-12T19:05:12Z</time>
      </trkpt>
      <trkpt lat="43.61726" lon="1.19413">
        <ele>235</ele>
        <time>2022-03-12T19:05:18Z</time>
      </trkpt>
      <trkpt lat="43.6167" lon="1.19522">
        <ele>233</ele>
        <time>2022-03-12T19:05:35Z</time>
      </trkpt>
      <trkpt lat="43.61654" lon="1.19563">
        <ele>233</ele>
        <time>2022-03-12T19:05:41Z</time>
      </trkpt>
      <trkpt lat="43.61599" lon="1.1978">
        <ele>232</ele>
        <time>2022-03-12T19:06:11Z</time>
      </trkpt>
      <trkpt lat="43.61528" lon="1.19988">
        <ele>229</ele>
        <time>2022-03-12T19:06:41Z</time>
      </trkpt>
      <trkpt lat="43.61479" lon="1.20127">
        <ele>225</ele>
        <time>2022-03-12T19:07:01Z</time>
      </trkpt>
      <trkpt lat="43.61437" lon="1.20254">
        <ele>222</ele>
        <time>2022-03-12T19:07:19Z</time>
      </trkpt>
      <trkpt lat="43.61406" lon="1.20377">
        <ele>223</ele>
        <time>2022-03-12T19:07:35Z</time>
      </trkpt>
      <trkpt lat="43.61378" lon="1.20475">
        <ele>222</ele>
        <time>2022-03-12T19:07:49Z</time>
      </trkpt>
      <trkpt lat="43.61346" lon="1.20546">
        <ele>218</ele>
        <time>2022-03-12T19:08:00Z</time>
      </trkpt>
      <trkpt lat="43.61311" lon="1.206">
        <ele>214</ele>
        <time>2022-03-12T19:08:09Z</time>
      </trkpt>
      <trkpt lat="43.6131" lon="1.20608">
        <ele>214</ele>
        <time>2022-03-12T19:08:10Z</time>
      </trkpt>
      <trkpt lat="43.61287" lon="1.20635">
        <ele>211</ele>
        <time>2022-03-12T19:08:15Z</time>
      </trkpt>
      <trkpt lat="43.61285" lon="1.20644">
        <ele>210</ele>
        <time>2022-03-12T19:08:17Z</time>
      </trkpt>
      <trkpt lat="43.61085" lon="1.20873">
        <ele>203</ele>
        <time>2022-03-12T19:09:03Z</time>
      </trkpt>
      <trkpt lat="43.61077" lon="1.20884">
        <ele>202</ele>
        <time>2022-03-12T19:09:05Z</time>
      </trkpt>
      <trkpt lat="43.61069" lon="1.20892">
        <ele>202</ele>
        <time>2022-03-12T19:09:07Z</time>
      </trkpt>
      <trkpt lat="43.6102" lon="1.20953">
        <ele>203</ele>
        <time>2022-03-12T19:09:18Z</time>
      </trkpt>
      <trkpt lat="43.60987" lon="1.21">
        <ele>204</ele>
        <time>2022-03-12T19:09:27Z</time>
      </trkpt>
      <trkpt lat="43.60979" lon="1.21001">
        <ele>203</ele>
        <time>2022-03-12T19:09:28Z</time>
      </trkpt>
      <trkpt lat="43.60972" lon="1.21014">
        <ele>203</ele>
        <time>2022-03-12T19:09:30Z</time>
      </trkpt>
      <trkpt lat="43.60744" lon="1.21615">
        <ele>197</ele>
        <time>2022-03-12T19:10:58Z</time>
      </trkpt>
      <trkpt lat="43.60611" lon="1.21951">
        <ele>197</ele>
        <time>2022-03-12T19:11:47Z</time>
      </trkpt>
      <trkpt lat="43.60583" lon="1.22017">
        <ele>197</ele>
        <time>2022-03-12T19:11:57Z</time>
      </trkpt>
      <trkpt lat="43.60544" lon="1.22132">
        <ele>197</ele>
        <time>2022-03-12T19:12:13Z</time>
      </trkpt>
      <trkpt lat="43.60523" lon="1.22184">
        <ele>197</ele>
        <time>2022-03-12T19:12:21Z</time>
      </trkpt>
      <trkpt lat="43.60444" lon="1.22333">
        <ele>196</ele>
        <time>2022-03-12T19:12:45Z</time>
      </trkpt>
      <trkpt lat="43.60436" lon="1.2234">
        <ele>196</ele>
        <time>2022-03-12T19:12:46Z</time>
      </trkpt>
      <trkpt lat="43.60424" lon="1.22361">
        <ele>195</ele>
        <time>2022-03-12T19:12:50Z</time>
      </trkpt>
      <trkpt lat="43.60414" lon="1.22375">
        <ele>195</ele>
        <time>2022-03-12T19:12:52Z</time>
      </trkpt>
      <trkpt lat="43.60385" lon="1.22409">
        <ele>195</ele>
        <time>2022-03-12T19:12:59Z</time>
      </trkpt>
      <trkpt lat="43.60356" lon="1.22449">
        <ele>195</ele>
        <time>2022-03-12T19:13:06Z</time>
      </trkpt>
      <trkpt lat="43.60335" lon="1.22499">
        <ele>195</ele>
        <time>2022-03-12T19:13:14Z</time>
      </trkpt>
      <trkpt lat="43.60294" lon="1.22609">
        <ele>195</ele>
        <time>2022-03-12T19:13:30Z</time>
      </trkpt>
      <trkpt lat="43.6029" lon="1.22607">
        <ele>196</ele>
        <time>2022-03-12T19:13:31Z</time>
      </trkpt>
      <trkpt lat="43.60285" lon="1.22607">
        <ele>196</ele>
        <time>2022-03-12T19:13:31Z</time>
      </trkpt>
      <trkpt lat="43.60281" lon="1.2261">
        <ele>196</ele>
        <time>2022-03-12T19:13:32Z</time>
      </trkpt>
      <trkpt lat="43.60278" lon="1.22615">
        <ele>196</ele>
        <time>2022-03-12T19:13:33Z</time>
      </trkpt>
      <trkpt lat="43.60277" lon="1.22627">
        <ele>196</ele>
        <time>2022-03-12T19:13:35Z</time>
      </trkpt>
      <trkpt lat="43.60282" lon="1.22636">
        <ele>196</ele>
        <time>2022-03-12T19:13:36Z</time>
      </trkpt>
      <trkpt lat="43.60187" lon="1.22893">
        <ele>195</ele>
        <time>2022-03-12T19:14:13Z</time>
      </trkpt>
      <trkpt lat="43.60099" lon="1.23112">
        <ele>188</ele>
        <time>2022-03-12T19:14:46Z</time>
      </trkpt>
      <trkpt lat="43.60093" lon="1.23121">
        <ele>188</ele>
        <time>2022-03-12T19:14:47Z</time>
      </trkpt>
      <trkpt lat="43.60048" lon="1.23188">
        <ele>190</ele>
        <time>2022-03-12T19:14:59Z</time>
      </trkpt>
      <trkpt lat="43.60041" lon="1.23202">
        <ele>191</ele>
        <time>2022-03-12T19:15:01Z</time>
      </trkpt>
      <trkpt lat="43.60039" lon="1.23199">
        <ele>191</ele>
        <time>2022-03-12T19:15:02Z</time>
      </trkpt>
      <trkpt lat="43.60034" lon="1.23197">
        <ele>191</ele>
        <time>2022-03-12T19:15:03Z</time>
      </trkpt>
      <trkpt lat="43.60028" lon="1.23202">
        <ele>192</ele>
        <time>2022-03-12T19:15:04Z</time>
      </trkpt>
      <trkpt lat="43.60026" lon="1.23208">
        <ele>192</ele>
        <time>2022-03-12T19:15:05Z</time>
      </trkpt>
      <trkpt lat="43.60028" lon="1.23214">
        <ele>192</ele>
        <time>2022-03-12T19:15:06Z</time>
      </trkpt>
      <trkpt lat="43.60034" lon="1.23219">
        <ele>191</ele>
        <time>2022-03-12T19:15:07Z</time>
      </trkpt>
      <trkpt lat="43.60039" lon="1.23217">
        <ele>191</ele>
        <time>2022-03-12T19:15:08Z</time>
      </trkpt>
      <trkpt lat="43.60041" lon="1.23228">
        <ele>191</ele>
        <time>2022-03-12T19:15:09Z</time>
      </trkpt>
      <trkpt lat="43.60055" lon="1.23266">
        <ele>189</ele>
        <time>2022-03-12T19:15:15Z</time>
      </trkpt>
      <trkpt lat="43.60061" lon="1.23291">
        <ele>189</ele>
        <time>2022-03-12T19:15:18Z</time>
      </trkpt>
      <trkpt lat="43.60064" lon="1.23337">
        <ele>188</ele>
        <time>2022-03-12T19:15:24Z</time>
      </trkpt>
      <trkpt lat="43.60087" lon="1.23336">
        <ele>186</ele>
        <time>2022-03-12T19:15:28Z</time>
      </trkpt>
      <trkpt lat="43.60126" lon="1.2333">
        <ele>185</ele>
        <time>2022-03-12T19:15:35Z</time>
      </trkpt>
      <trkpt lat="43.60136" lon="1.23329">
        <ele>185</ele>
        <time>2022-03-12T19:15:37Z</time>
      </trkpt>
      <trkpt lat="43.60142" lon="1.23323">
        <ele>185</ele>
        <time>2022-03-12T19:15:38Z</time>
      </trkpt>
      <trkpt lat="43.60246" lon="1.23318">
        <ele>192</ele>
        <time>2022-03-12T19:15:57Z</time>
      </trkpt>
      <trkpt lat="43.60278" lon="1.23313">
        <ele>194</ele>
        <time>2022-03-12T19:16:02Z</time>
      </trkpt>
      <trkpt lat="43.60293" lon="1.23302">
        <ele>195</ele>
        <time>2022-03-12T19:16:05Z</time>
      </trkpt>
      <trkpt lat="43.60306" lon="1.23301">
        <ele>196</ele>
        <time>2022-03-12T19:16:08Z</time>
      </trkpt>
      <trkpt lat="43.60318" lon="1.2331">
        <ele>196</ele>
        <time>2022-03-12T19:16:10Z</time>
      </trkpt>
      <trkpt lat="43.6037" lon="1.23321">
        <ele>197</ele>
        <time>2022-03-12T19:16:20Z</time>
      </trkpt>
      <trkpt lat="43.60553" lon="1.23394">
        <ele>198</ele>
        <time>2022-03-12T19:16:53Z</time>
      </trkpt>
      <trkpt lat="43.60628" lon="1.23415">
        <ele>197</ele>
        <time>2022-03-12T19:17:07Z</time>
      </trkpt>
      <trkpt lat="43.60689" lon="1.23418">
        <ele>195</ele>
        <time>2022-03-12T19:17:18Z</time>
      </trkpt>
      <trkpt lat="43.60704" lon="1.23416">
        <ele>195</ele>
        <time>2022-03-12T19:17:21Z</time>
      </trkpt>
      <trkpt lat="43.60715" lon="1.23406">
        <ele>195</ele>
        <time>2022-03-12T19:17:23Z</time>
      </trkpt>
      <trkpt lat="43.60719" lon="1.23398">
        <ele>194</ele>
        <time>2022-03-12T19:17:24Z</time>
      </trkpt>
      <trkpt lat="43.60723" lon="1.23399">
        <ele>194</ele>
        <time>2022-03-12T19:17:25Z</time>
      </trkpt>
      <trkpt lat="43.60732" lon="1.23402">
        <ele>194</ele>
        <time>2022-03-12T19:17:27Z</time>
      </trkpt>
      <trkpt lat="43.60732" lon="1.2341">
        <ele>194</ele>
        <time>2022-03-12T19:17:28Z</time>
      </trkpt>
      <trkpt lat="43.60738" lon="1.23418">
        <ele>194</ele>
        <time>2022-03-12T19:17:29Z</time>
      </trkpt>
      <trkpt lat="43.60786" lon="1.23423">
        <ele>193</ele>
        <time>2022-03-12T19:17:38Z</time>
      </trkpt>
      <trkpt lat="43.60819" lon="1.23434">
        <ele>192</ele>
        <time>2022-03-12T19:17:44Z</time>
      </trkpt>
      <trkpt lat="43.6086" lon="1.23453">
        <ele>193</ele>
        <time>2022-03-12T19:17:51Z</time>
      </trkpt>
      <trkpt lat="43.60875" lon="1.23454">
        <ele>193</ele>
        <time>2022-03-12T19:17:54Z</time>
      </trkpt>
      <trkpt lat="43.60922" lon="1.23481">
        <ele>193</ele>
        <time>2022-03-12T19:18:03Z</time>
      </trkpt>
      <trkpt lat="43.60946" lon="1.23504">
        <ele>194</ele>
        <time>2022-03-12T19:18:08Z</time>
      </trkpt>
      <trkpt lat="43.60948" lon="1.23511">
        <ele>194</ele>
        <time>2022-03-12T19:18:09Z</time>
      </trkpt>
      <trkpt lat="43.6102" lon="1.23589">
        <ele>195</ele>
        <time>2022-03-12T19:18:26Z</time>
      </trkpt>
      <trkpt lat="43.61089" lon="1.23669">
        <ele>194</ele>
        <time>2022-03-12T19:18:42Z</time>
      </trkpt>
      <trkpt lat="43.61092" lon="1.2367">
        <ele>194</ele>
        <time>2022-03-12T19:18:42Z</time>
      </trkpt>
      <trkpt lat="43.61103" lon="1.23667">
        <ele>194</ele>
        <time>2022-03-12T19:18:44Z</time>
      </trkpt>
      <trkpt lat="43.61106" lon="1.2367">
        <ele>194</ele>
        <time>2022-03-12T19:18:45Z</time>
      </trkpt>
      <trkpt lat="43.61111" lon="1.23675">
        <ele>194</ele>
        <time>2022-03-12T19:18:46Z</time>
      </trkpt>
      <trkpt lat="43.61111" lon="1.23685">
        <ele>194</ele>
        <time>2022-03-12T19:18:47Z</time>
      </trkpt>
      <trkpt lat="43.61115" lon="1.23692">
        <ele>194</ele>
        <time>2022-03-12T19:18:48Z</time>
      </trkpt>
      <trkpt lat="43.61118" lon="1.23694">
        <ele>194</ele>
        <time>2022-03-12T19:18:49Z</time>
      </trkpt>
      <trkpt lat="43.61137" lon="1.237">
        <ele>194</ele>
        <time>2022-03-12T19:18:52Z</time>
      </trkpt>
      <trkpt lat="43.61362" lon="1.23701">
        <ele>193</ele>
        <time>2022-03-12T19:19:32Z</time>
      </trkpt>
      <trkpt lat="43.61382" lon="1.23703">
        <ele>193</ele>
        <time>2022-03-12T19:19:36Z</time>
      </trkpt>
      <trkpt lat="43.61401" lon="1.23709">
        <ele>193</ele>
        <time>2022-03-12T19:19:39Z</time>
      </trkpt>
      <trkpt lat="43.61435" lon="1.23581">
        <ele>193</ele>
        <time>2022-03-12T19:19:57Z</time>
      </trkpt>
    </trkseg>
  </trk>
</gpx>